Time,TemperatureF,DewpointF,PressureIn,WindDirection,WindDirectionDegrees,WindSpeedMPH,WindSpeedGustMPH,Humidity,HourlyPrecipIn,Conditions,Clouds,dailyrainin,SoftwareType,DateUTC
2013-06-11 00:00:00,61.7,61.1,29.82,SE,135,3.8,4.9,98,0.08,,SKC,0.00,VWS V14.01,2013-06-11 04:00:00,
2013-06-11 00:01:00,61.7,61.1,29.82,SE,135,4.9,6.3,98,0.08,,SKC,0.00,VWS V14.01,2013-06-11 04:01:00,
2013-06-11 00:02:00,61.7,61.1,29.82,SE,135,4.9,6.5,98,0.08,,SKC,0.00,VWS V14.01,2013-06-11 04:02:00,
2013-06-11 00:04:00,61.7,61.1,29.82,South,180,4.9,6.0,98,0.08,,SKC,0.00,VWS V14.01,2013-06-11 04:04:00,
2013-06-11 00:06:00,61.7,61.1,29.82,SE,135,6.3,8.5,98,0.08,,SKC,0.00,VWS V14.01,2013-06-11 04:06:00,
2013-06-11 00:07:00,61.7,61.1,29.82,SE,135,4.3,6.3,98,0.08,,SKC,0.00,VWS V14.01,2013-06-11 04:07:00,
2013-06-11 00:08:00,61.9,61.3,29.82,SE,135,3.8,5.8,98,0.08,,SKC,0.00,VWS V14.01,2013-06-11 04:08:00,
2013-06-11 00:10:00,61.9,61.3,29.82,SE,135,4.0,5.6,98,0.08,,SKC,0.00,VWS V14.01,2013-06-11 04:10:00,
2013-06-11 00:12:00,61.9,61.3,29.82,ESE,112,5.8,5.8,98,0.04,,SKC,0.00,VWS V14.01,2013-06-11 04:12:00,
2013-06-11 00:14:00,61.9,61.3,29.82,SSE,158,4.0,5.8,98,0.04,,SKC,0.00,VWS V14.01,2013-06-11 04:14:00,
2013-06-11 00:16:00,61.9,61.3,29.82,ESE,112,2.5,6.0,98,0.04,,SKC,0.00,VWS V14.01,2013-06-11 04:16:00,
2013-06-11 00:17:00,61.9,61.3,29.82,SSE,158,3.1,6.0,98,0.04,,SKC,0.00,VWS V14.01,2013-06-11 04:17:00,
2013-06-11 00:18:00,61.9,61.3,29.82,SE,135,6.5,6.5,98,0.04,,SKC,0.00,VWS V14.01,2013-06-11 04:18:00,
2013-06-11 00:20:00,61.9,61.3,29.82,SE,135,5.4,5.6,98,0.04,,SKC,0.00,VWS V14.01,2013-06-11 04:20:00,
2013-06-11 00:22:00,62.1,61.5,29.82,SE,135,6.0,6.0,98,0.04,,SKC,0.00,VWS V14.01,2013-06-11 04:22:00,
2013-06-11 00:24:00,62.1,61.5,29.82,SE,135,4.9,5.4,98,0.04,,SKC,0.00,VWS V14.01,2013-06-11 04:24:00,
2013-06-11 00:26:00,62.1,61.5,29.82,SE,135,4.3,4.3,98,0.00,,SKC,0.00,VWS V14.01,2013-06-11 04:26:00,
2013-06-11 00:27:00,62.1,61.5,29.82,SSE,158,4.3,4.9,98,0.00,,SKC,0.00,VWS V14.01,2013-06-11 04:27:00,
2013-06-11 00:28:00,62.1,61.5,29.80,ESE,112,4.0,4.7,98,0.00,,SKC,0.00,VWS V14.01,2013-06-11 04:28:00,
2013-06-11 00:30:00,62.2,61.7,29.80,SE,135,3.4,6.0,98,0.00,,SKC,0.00,VWS V14.01,2013-06-11 04:30:00,
2013-06-11 00:32:00,62.2,61.7,29.79,SE,135,3.1,3.4,98,0.00,,SKC,0.00,VWS V14.01,2013-06-11 04:32:00,
2013-06-11 00:34:00,62.2,61.7,29.80,SSE,158,4.3,4.3,98,0.00,,SKC,0.00,VWS V14.01,2013-06-11 04:34:00,
2013-06-11 00:36:00,62.2,61.7,29.80,SE,135,2.0,3.1,98,0.00,,SKC,0.00,VWS V14.01,2013-06-11 04:36:00,
2013-06-11 00:37:00,62.4,61.8,29.79,ESE,112,3.8,4.3,98,0.00,,SKC,0.00,VWS V14.01,2013-06-11 04:37:00,
2013-06-11 00:38:00,62.4,61.8,29.80,SE,135,2.9,4.3,98,0.00,,SKC,0.00,VWS V14.01,2013-06-11 04:38:00,
2013-06-11 00:40:00,62.4,61.8,29.80,SE,135,2.9,3.6,98,0.00,,SKC,0.00,VWS V14.01,2013-06-11 04:40:00,
2013-06-11 00:42:00,62.6,62.0,29.79,SE,135,4.0,4.0,98,0.00,,SKC,0.00,VWS V14.01,2013-06-11 04:42:00,
2013-06-11 00:44:00,62.6,62.0,29.80,SE,135,3.4,3.8,98,0.00,,SKC,0.00,VWS V14.01,2013-06-11 04:44:00,
2013-06-11 00:46:00,62.6,62.0,29.80,SE,135,4.3,6.0,98,0.00,,SKC,0.00,VWS V14.01,2013-06-11 04:46:00,
2013-06-11 00:47:00,62.6,62.0,29.79,SE,135,3.1,3.8,98,0.00,,SKC,0.00,VWS V14.01,2013-06-11 04:47:00,
2013-06-11 00:48:00,62.6,62.0,29.80,SE,135,4.3,4.3,98,0.00,,SKC,0.00,VWS V14.01,2013-06-11 04:48:00,
2013-06-11 00:50:00,62.8,62.2,29.80,SE,135,2.2,2.9,98,0.00,,SKC,0.00,VWS V14.01,2013-06-11 04:50:00,
2013-06-11 00:52:00,62.8,62.2,29.79,SSE,158,2.0,2.9,98,0.00,,SKC,0.00,VWS V14.01,2013-06-11 04:52:00,
2013-06-11 00:54:00,62.8,62.2,29.80,SE,135,2.0,2.5,98,0.00,,SKC,0.00,VWS V14.01,2013-06-11 04:54:00,
2013-06-11 00:56:00,62.8,62.2,29.80,SE,135,2.5,2.9,98,0.00,,SKC,0.00,VWS V14.01,2013-06-11 04:56:00,
2013-06-11 00:57:00,63.0,62.4,29.76,South,180,2.0,3.4,98,0.00,,SKC,0.00,VWS V14.01,2013-06-11 04:57:00,
2013-06-11 00:58:00,63.0,62.4,29.76,South,180,2.0,2.5,98,0.00,,SKC,0.00,VWS V14.01,2013-06-11 04:58:00,
2013-06-11 01:00:00,63.0,62.4,29.76,SSE,158,0.9,2.5,98,0.00,,SKC,0.00,VWS V14.01,2013-06-11 05:00:00,
2013-06-11 01:02:00,63.0,62.4,29.76,East,90,1.1,1.1,98,0.00,,SKC,0.00,VWS V14.01,2013-06-11 05:02:00,
2013-06-11 01:04:00,63.0,62.4,29.76,ESE,112,0.0,1.1,98,0.00,,SKC,0.00,VWS V14.01,2013-06-11 05:04:00,
2013-06-11 01:06:00,63.1,62.6,29.76,SSE,158,0.0,2.9,98,0.00,,SKC,0.00,VWS V14.01,2013-06-11 05:06:00,
2013-06-11 01:07:00,63.1,62.6,29.76,SE,135,2.5,3.4,98,0.00,,SKC,0.00,VWS V14.01,2013-06-11 05:07:00,
2013-06-11 01:08:00,63.1,62.6,29.76,SE,135,2.2,3.4,98,0.00,,SKC,0.00,VWS V14.01,2013-06-11 05:08:00,
2013-06-11 01:10:00,63.1,62.6,29.76,NE,45,0.0,2.0,98,0.00,,SKC,0.00,VWS V14.01,2013-06-11 05:10:00,
2013-06-11 01:12:00,63.1,62.6,29.79,East,90,0.9,0.9,98,0.00,,SKC,0.00,VWS V14.01,2013-06-11 05:12:00,
2013-06-11 01:14:00,63.3,62.8,29.80,ENE,68,0.0,1.3,98,0.00,,SKC,0.00,VWS V14.01,2013-06-11 05:14:00,
2013-06-11 01:16:00,63.3,62.8,29.80,South,180,0.0,2.0,98,0.00,,SKC,0.00,VWS V14.01,2013-06-11 05:16:00,
2013-06-11 01:17:00,63.3,62.8,29.79,NNE,22,1.1,1.3,98,0.00,,SKC,0.00,VWS V14.01,2013-06-11 05:17:00,
2013-06-11 01:18:00,63.3,62.8,29.80,NE,45,0.0,1.3,98,0.00,,SKC,0.00,VWS V14.01,2013-06-11 05:18:00,
2013-06-11 01:20:00,63.5,62.9,29.80,SSE,158,0.0,0.0,98,0.00,,SKC,0.00,VWS V14.01,2013-06-11 05:20:00,
2013-06-11 01:22:00,63.5,62.9,29.79,WNW,292,0.0,0.0,98,0.00,,SKC,0.00,VWS V14.01,2013-06-11 05:22:00,
2013-06-11 01:24:00,63.5,62.9,29.80,ESE,112,2.5,2.5,98,0.00,,SKC,0.00,VWS V14.01,2013-06-11 05:24:00,
2013-06-11 01:26:00,63.7,63.1,29.80,SE,135,2.2,2.7,98,0.00,,SKC,0.00,VWS V14.01,2013-06-11 05:26:00,
2013-06-11 01:27:00,63.9,63.3,29.79,South,180,1.6,2.5,98,0.00,,SKC,0.00,VWS V14.01,2013-06-11 05:27:00,
2013-06-11 01:28:00,63.9,63.3,29.80,ENE,68,0.0,2.5,98,0.00,,SKC,0.00,VWS V14.01,2013-06-11 05:28:00,
2013-06-11 01:30:00,64.0,63.5,29.80,ESE,112,2.0,3.6,98,0.00,,SKC,0.00,VWS V14.01,2013-06-11 05:30:00,
2013-06-11 01:32:00,64.2,63.7,29.79,ENE,68,3.4,3.4,98,0.00,,SKC,0.00,VWS V14.01,2013-06-11 05:32:00,
2013-06-11 01:34:00,64.6,64.0,29.80,West,270,0.0,3.4,98,0.00,,SKC,0.00,VWS V14.01,2013-06-11 05:34:00,
2013-06-11 01:36:00,64.8,64.2,29.80,ESE,112,1.3,3.8,98,0.00,,SKC,0.00,VWS V14.01,2013-06-11 05:36:00,
2013-06-11 01:37:00,64.9,64.4,29.79,NE,45,2.5,2.5,98,0.00,,SKC,0.00,VWS V14.01,2013-06-11 05:37:00,
2013-06-11 01:38:00,64.9,64.4,29.80,East,90,2.5,2.5,98,0.00,,SKC,0.00,VWS V14.01,2013-06-11 05:38:00,
2013-06-11 01:40:00,65.1,64.5,29.80,East,90,1.6,2.9,98,0.00,,SKC,0.00,VWS V14.01,2013-06-11 05:40:00,
2013-06-11 01:42:00,65.3,64.7,29.79,East,90,2.9,4.0,98,0.00,,SKC,0.00,VWS V14.01,2013-06-11 05:42:00,
2013-06-11 01:44:00,65.5,64.9,29.80,East,90,1.3,4.0,98,0.00,,SKC,0.00,VWS V14.01,2013-06-11 05:44:00,
2013-06-11 01:46:00,65.5,64.9,29.80,East,90,2.2,3.4,98,0.04,,SKC,0.04,VWS V14.01,2013-06-11 05:46:00,
2013-06-11 01:47:00,65.7,65.1,29.79,SE,135,3.1,3.1,98,0.04,,SKC,0.04,VWS V14.01,2013-06-11 05:47:00,
2013-06-11 01:48:00,65.7,65.1,29.80,SE,135,3.1,3.1,98,0.04,,SKC,0.04,VWS V14.01,2013-06-11 05:48:00,
2013-06-11 01:50:00,65.7,65.1,29.80,SE,135,3.6,3.6,98,0.08,,SKC,0.08,VWS V14.01,2013-06-11 05:50:00,
2013-06-11 01:52:00,65.8,65.3,29.79,SE,135,1.3,3.4,98,0.08,,SKC,0.08,VWS V14.01,2013-06-11 05:52:00,
2013-06-11 01:54:00,65.8,65.3,29.80,ESE,112,1.6,1.6,98,0.08,,SKC,0.08,VWS V14.01,2013-06-11 05:54:00,
2013-06-11 01:56:00,65.8,65.3,29.80,SE,135,2.2,4.3,98,0.08,,SKC,0.08,VWS V14.01,2013-06-11 05:56:00,
2013-06-11 01:57:00,66.0,65.4,29.74,East,90,0.0,1.3,98,0.08,,SKC,0.08,VWS V14.01,2013-06-11 05:57:00,
2013-06-11 01:58:00,66.0,65.4,29.74,East,90,0.0,0.0,98,0.08,,SKC,0.08,VWS V14.01,2013-06-11 05:58:00,
2013-06-11 02:00:00,66.0,65.4,29.74,SE,135,2.9,5.6,98,0.08,,SKC,0.08,VWS V14.01,2013-06-11 06:00:00,
2013-06-11 02:02:00,66.0,65.4,29.74,ENE,68,2.0,2.0,98,0.08,,SKC,0.08,VWS V14.01,2013-06-11 06:02:00,
2013-06-11 02:04:00,66.0,65.4,29.74,South,180,1.1,2.7,98,0.08,,SKC,0.08,VWS V14.01,2013-06-11 06:04:00,
2013-06-11 02:06:00,66.0,65.4,29.74,ENE,68,1.3,2.0,98,0.08,,SKC,0.08,VWS V14.01,2013-06-11 06:06:00,
2013-06-11 02:07:00,66.2,65.6,29.74,South,180,4.7,4.7,98,0.08,,SKC,0.08,VWS V14.01,2013-06-11 06:07:00,
2013-06-11 02:08:00,66.2,65.6,29.74,South,180,4.7,4.7,98,0.08,,SKC,0.08,VWS V14.01,2013-06-11 06:08:00,
2013-06-11 02:10:00,66.2,65.6,29.74,SE,135,6.9,6.9,98,0.08,,SKC,0.08,VWS V14.01,2013-06-11 06:10:00,
2013-06-11 02:12:00,66.4,65.8,29.74,SE,135,2.2,8.1,98,0.08,,SKC,0.08,VWS V14.01,2013-06-11 06:12:00,
2013-06-11 02:14:00,66.4,65.8,29.74,East,90,2.0,6.3,98,0.08,,SKC,0.08,VWS V14.01,2013-06-11 06:14:00,
2013-06-11 02:16:00,66.4,65.8,29.74,West,270,2.5,5.4,98,0.08,,SKC,0.08,VWS V14.01,2013-06-11 06:16:00,
2013-06-11 02:17:00,66.6,66.0,29.74,SSE,158,4.7,5.6,98,0.08,,SKC,0.08,VWS V14.01,2013-06-11 06:17:00,
2013-06-11 02:18:00,66.6,66.0,29.74,SSE,158,4.7,5.6,98,0.08,,SKC,0.08,VWS V14.01,2013-06-11 06:18:00,
2013-06-11 02:20:00,66.6,66.0,29.74,SW,225,3.1,4.9,98,0.08,,SKC,0.08,VWS V14.01,2013-06-11 06:20:00,
2013-06-11 02:22:00,66.6,66.0,29.74,WSW,248,3.1,3.4,98,0.08,,SKC,0.08,VWS V14.01,2013-06-11 06:22:00,
2013-06-11 02:23:00,66.7,66.2,29.74,East,90,1.6,5.6,98,0.13,,SKC,0.13,VWS V14.01,2013-06-11 06:23:00,
2013-06-11 02:24:00,66.7,66.2,29.74,East,90,4.9,6.0,98,0.13,,SKC,0.13,VWS V14.01,2013-06-11 06:24:00,
2013-06-11 02:26:00,66.7,66.2,29.74,East,90,4.3,6.3,98,0.13,,SKC,0.13,VWS V14.01,2013-06-11 06:26:00,
2013-06-11 02:28:00,66.7,66.2,29.74,WSW,248,6.3,6.3,98,0.13,,SKC,0.13,VWS V14.01,2013-06-11 06:28:00,
2013-06-11 02:30:00,66.7,66.2,29.74,NNW,338,1.6,4.3,98,0.13,,SKC,0.13,VWS V14.01,2013-06-11 06:30:00,
2013-06-11 02:32:00,66.7,66.2,29.74,ENE,68,2.7,4.5,98,0.13,,SKC,0.13,VWS V14.01,2013-06-11 06:32:00,
2013-06-11 02:34:00,66.7,66.2,29.74,SW,225,3.1,3.8,98,0.13,,SKC,0.13,VWS V14.01,2013-06-11 06:34:00,
2013-06-11 02:36:00,66.7,66.2,29.74,North,0,3.8,3.8,98,0.13,,SKC,0.13,VWS V14.01,2013-06-11 06:36:00,
2013-06-11 02:38:00,66.7,66.2,29.74,WNW,292,2.9,6.0,98,0.13,,SKC,0.13,VWS V14.01,2013-06-11 06:38:00,
2013-06-11 02:40:00,66.7,66.2,29.74,SE,135,2.0,4.0,98,0.13,,SKC,0.13,VWS V14.01,2013-06-11 06:40:00,
2013-06-11 02:42:00,66.7,66.2,29.74,East,90,2.0,4.3,98,0.13,,SKC,0.13,VWS V14.01,2013-06-11 06:42:00,
2013-06-11 02:43:00,66.7,66.2,29.71,ESE,112,3.6,4.0,98,0.13,,SKC,0.13,VWS V14.01,2013-06-11 06:43:00,
2013-06-11 02:44:00,66.7,66.2,29.71,SW,225,0.9,3.6,98,0.13,,SKC,0.13,VWS V14.01,2013-06-11 06:44:00,
2013-06-11 02:46:00,66.7,66.2,29.71,East,90,2.9,3.1,98,0.13,,SKC,0.13,VWS V14.01,2013-06-11 06:46:00,
2013-06-11 02:48:00,66.6,66.0,29.71,ESE,112,3.1,4.3,98,0.09,,SKC,0.13,VWS V14.01,2013-06-11 06:48:00,
2013-06-11 02:50:00,66.7,66.2,29.71,West,270,1.6,6.5,98,0.09,,SKC,0.13,VWS V14.01,2013-06-11 06:50:00,
2013-06-11 02:52:00,66.7,66.2,29.71,NE,45,2.9,3.1,98,0.05,,SKC,0.13,VWS V14.01,2013-06-11 06:52:00,
2013-06-11 02:53:00,66.7,66.2,29.71,South,180,2.5,5.4,98,0.05,,SKC,0.13,VWS V14.01,2013-06-11 06:53:00,
2013-06-11 02:54:00,66.7,66.2,29.71,West,270,2.0,5.4,98,0.05,,SKC,0.13,VWS V14.01,2013-06-11 06:54:00,
2013-06-11 02:56:00,66.7,66.2,29.71,SW,225,3.8,3.8,98,0.05,,SKC,0.13,VWS V14.01,2013-06-11 06:56:00,
2013-06-11 02:58:00,66.7,66.2,29.74,SE,135,2.9,4.0,98,0.05,,SKC,0.13,VWS V14.01,2013-06-11 06:58:00,
2013-06-11 03:00:00,66.7,66.2,29.74,NNE,22,1.3,3.6,98,0.05,,SKC,0.13,VWS V14.01,2013-06-11 07:00:00,
2013-06-11 03:02:00,66.7,66.2,29.74,SE,135,1.6,4.9,98,0.05,,SKC,0.13,VWS V14.01,2013-06-11 07:02:00,
2013-06-11 03:03:00,66.7,66.2,29.74,SW,225,3.8,3.8,98,0.05,,SKC,0.13,VWS V14.01,2013-06-11 07:03:00,
2013-06-11 03:04:00,66.7,66.2,29.74,West,270,1.1,3.8,98,0.05,,SKC,0.13,VWS V14.01,2013-06-11 07:04:00,
2013-06-11 03:06:00,66.7,66.2,29.74,East,90,2.2,3.8,98,0.05,,SKC,0.13,VWS V14.01,2013-06-11 07:06:00,
2013-06-11 03:08:00,66.7,66.2,29.74,East,90,3.6,7.6,98,0.05,,SKC,0.13,VWS V14.01,2013-06-11 07:08:00,
2013-06-11 03:10:00,66.7,66.2,29.74,North,0,1.6,3.1,98,0.05,,SKC,0.13,VWS V14.01,2013-06-11 07:10:00,
2013-06-11 03:12:00,66.7,66.2,29.74,SW,225,2.7,3.4,98,0.05,,SKC,0.13,VWS V14.01,2013-06-11 07:12:00,
2013-06-11 03:13:00,66.6,66.0,29.76,WSW,248,2.0,3.6,98,0.05,,SKC,0.13,VWS V14.01,2013-06-11 07:13:00,
2013-06-11 03:14:00,66.6,66.0,29.76,SE,135,2.0,3.6,98,0.05,,SKC,0.13,VWS V14.01,2013-06-11 07:14:00,
2013-06-11 03:16:00,66.6,66.0,29.76,West,270,2.7,5.4,98,0.05,,SKC,0.13,VWS V14.01,2013-06-11 07:16:00,
2013-06-11 03:18:00,66.6,66.0,29.76,WSW,248,4.9,4.9,98,0.05,,SKC,0.13,VWS V14.01,2013-06-11 07:18:00,
2013-06-11 03:20:00,66.6,66.0,29.76,WSW,248,3.1,4.0,98,0.05,,SKC,0.13,VWS V14.01,2013-06-11 07:20:00,
2013-06-11 03:22:00,66.6,66.0,29.76,North,0,0.0,2.7,98,0.05,,SKC,0.13,VWS V14.01,2013-06-11 07:22:00,
2013-06-11 03:23:00,66.6,66.0,29.76,SW,225,3.8,3.8,98,0.05,,SKC,0.13,VWS V14.01,2013-06-11 07:23:00,
2013-06-11 03:24:00,66.6,66.0,29.76,West,270,1.1,3.8,98,0.05,,SKC,0.13,VWS V14.01,2013-06-11 07:24:00,
2013-06-11 03:26:00,66.6,66.0,29.76,SW,225,1.6,3.8,98,0.00,,SKC,0.13,VWS V14.01,2013-06-11 07:26:00,
2013-06-11 03:28:00,66.6,66.0,29.74,South,180,2.5,2.5,98,0.00,,SKC,0.13,VWS V14.01,2013-06-11 07:28:00,
2013-06-11 03:30:00,66.6,66.0,29.74,WSW,248,1.3,5.4,98,0.00,,SKC,0.13,VWS V14.01,2013-06-11 07:30:00,
2013-06-11 03:32:00,66.6,66.0,29.74,SSW,202,2.7,3.8,98,0.00,,SKC,0.13,VWS V14.01,2013-06-11 07:32:00,
2013-06-11 03:33:00,66.6,66.0,29.74,SSW,202,2.7,2.7,98,0.00,,SKC,0.13,VWS V14.01,2013-06-11 07:33:00,
2013-06-11 03:34:00,66.6,66.0,29.74,SSW,202,2.7,2.7,98,0.00,,SKC,0.13,VWS V14.01,2013-06-11 07:34:00,
2013-06-11 03:36:00,66.6,66.0,29.74,SSW,202,0.9,2.7,98,0.00,,SKC,0.13,VWS V14.01,2013-06-11 07:36:00,
2013-06-11 03:38:00,66.6,66.0,29.74,SSE,158,1.6,2.9,98,0.00,,SKC,0.13,VWS V14.01,2013-06-11 07:38:00,
2013-06-11 03:40:00,66.6,66.0,29.74,SE,135,4.0,4.0,98,0.00,,SKC,0.13,VWS V14.01,2013-06-11 07:40:00,
2013-06-11 03:42:00,66.6,66.0,29.74,NW,315,2.0,3.4,98,0.00,,SKC,0.13,VWS V14.01,2013-06-11 07:42:00,
2013-06-11 03:43:00,66.4,65.8,29.71,ENE,68,2.5,2.5,98,0.00,,SKC,0.13,VWS V14.01,2013-06-11 07:43:00,
2013-06-11 03:44:00,66.6,66.0,29.71,WSW,248,4.7,4.7,98,0.00,,SKC,0.13,VWS V14.01,2013-06-11 07:44:00,
2013-06-11 03:46:00,66.4,65.8,29.71,NE,45,3.4,3.4,98,0.00,,SKC,0.13,VWS V14.01,2013-06-11 07:46:00,
2013-06-11 03:48:00,66.6,66.0,29.71,West,270,4.0,4.0,98,0.00,,SKC,0.13,VWS V14.01,2013-06-11 07:48:00,
2013-06-11 03:50:00,66.6,66.0,29.71,SW,225,2.5,4.0,98,0.00,,SKC,0.13,VWS V14.01,2013-06-11 07:50:00,
2013-06-11 03:52:00,66.6,66.0,29.71,NW,315,1.3,4.7,98,0.00,,SKC,0.13,VWS V14.01,2013-06-11 07:52:00,
2013-06-11 03:53:00,66.6,66.0,29.71,SSE,158,0.0,1.3,98,0.00,,SKC,0.13,VWS V14.01,2013-06-11 07:53:00,
2013-06-11 03:54:00,66.6,66.0,29.71,ESE,112,3.1,3.1,98,0.00,,SKC,0.13,VWS V14.01,2013-06-11 07:54:00,
2013-06-11 03:56:00,66.6,66.0,29.71,SE,135,4.3,5.8,98,0.00,,SKC,0.13,VWS V14.01,2013-06-11 07:56:00,
2013-06-11 03:58:00,66.6,66.0,29.71,SSE,158,3.6,3.8,98,0.00,,SKC,0.13,VWS V14.01,2013-06-11 07:58:00,
2013-06-11 04:00:00,66.6,66.0,29.71,SSW,202,2.2,3.8,98,0.00,,SKC,0.13,VWS V14.01,2013-06-11 08:00:00,
2013-06-11 04:02:00,66.6,66.0,29.71,ESE,112,1.3,7.4,98,0.00,,SKC,0.13,VWS V14.01,2013-06-11 08:02:00,
2013-06-11 04:03:00,66.6,66.0,29.71,SW,225,2.0,3.4,98,0.00,,SKC,0.13,VWS V14.01,2013-06-11 08:03:00,
2013-06-11 04:04:00,66.6,66.0,29.71,SW,225,2.0,3.4,98,0.00,,SKC,0.13,VWS V14.01,2013-06-11 08:04:00,
2013-06-11 04:06:00,66.6,66.0,29.71,South,180,5.8,5.8,98,0.00,,SKC,0.13,VWS V14.01,2013-06-11 08:06:00,
2013-06-11 04:08:00,66.6,66.0,29.71,ENE,68,2.7,5.4,98,0.00,,SKC,0.13,VWS V14.01,2013-06-11 08:08:00,
2013-06-11 04:10:00,66.6,66.0,29.71,SW,225,2.5,2.7,98,0.00,,SKC,0.13,VWS V14.01,2013-06-11 08:10:00,
2013-06-11 04:12:00,66.6,66.0,29.71,ESE,112,6.3,6.3,98,0.00,,SKC,0.13,VWS V14.01,2013-06-11 08:12:00,
2013-06-11 04:13:00,66.6,66.0,29.68,NNW,338,5.6,5.6,98,0.00,,SKC,0.13,VWS V14.01,2013-06-11 08:13:00,
2013-06-11 04:14:00,66.7,66.2,29.68,NNW,338,5.6,5.6,98,0.00,,SKC,0.13,VWS V14.01,2013-06-11 08:14:00,
2013-06-11 04:16:00,66.7,66.2,29.68,SSW,202,3.8,5.4,98,0.00,,SKC,0.13,VWS V14.01,2013-06-11 08:16:00,
2013-06-11 04:18:00,66.7,66.2,29.68,West,270,3.6,7.6,98,0.00,,SKC,0.13,VWS V14.01,2013-06-11 08:18:00,
2013-06-11 04:20:00,66.7,66.2,29.68,SSW,202,2.9,7.6,98,0.00,,SKC,0.13,VWS V14.01,2013-06-11 08:20:00,
2013-06-11 04:22:00,66.7,66.2,29.68,SE,135,3.8,6.5,98,0.00,,SKC,0.13,VWS V14.01,2013-06-11 08:22:00,
2013-06-11 04:23:00,66.7,66.2,29.68,ESE,112,4.0,5.6,98,0.00,,SKC,0.13,VWS V14.01,2013-06-11 08:23:00,
2013-06-11 04:24:00,66.7,66.2,29.68,ESE,112,4.0,5.6,98,0.00,,SKC,0.13,VWS V14.01,2013-06-11 08:24:00,
2013-06-11 04:26:00,66.7,66.2,29.68,SE,135,5.6,5.6,98,0.00,,SKC,0.13,VWS V14.01,2013-06-11 08:26:00,
2013-06-11 04:28:00,66.7,66.2,29.68,SE,135,4.0,4.7,98,0.00,,SKC,0.13,VWS V14.01,2013-06-11 08:28:00,
2013-06-11 04:30:00,66.7,66.2,29.68,ESE,112,5.8,5.8,98,0.00,,SKC,0.13,VWS V14.01,2013-06-11 08:30:00,
2013-06-11 04:32:00,66.7,66.2,29.68,East,90,7.2,7.2,98,0.00,,SKC,0.13,VWS V14.01,2013-06-11 08:32:00,
2013-06-11 04:34:00,66.7,66.2,29.68,East,90,6.9,7.2,98,0.00,,SKC,0.13,VWS V14.01,2013-06-11 08:34:00,
2013-06-11 04:36:00,66.7,66.2,29.68,WSW,248,3.6,7.6,98,0.00,,SKC,0.13,VWS V14.01,2013-06-11 08:36:00,
2013-06-11 04:38:00,66.7,66.2,29.68,ENE,68,2.7,7.8,98,0.00,,SKC,0.13,VWS V14.01,2013-06-11 08:38:00,
2013-06-11 04:39:00,66.7,66.2,29.68,ESE,112,6.3,7.8,98,0.00,,SKC,0.13,VWS V14.01,2013-06-11 08:39:00,
2013-06-11 04:40:00,66.7,66.2,29.68,SE,135,5.6,8.1,98,0.00,,SKC,0.13,VWS V14.01,2013-06-11 08:40:00,
2013-06-11 04:42:00,66.7,66.2,29.68,East,90,5.4,8.1,98,0.00,,SKC,0.13,VWS V14.01,2013-06-11 08:42:00,
2013-06-11 04:44:00,66.7,66.2,29.68,NE,45,4.5,8.1,98,0.00,,SKC,0.13,VWS V14.01,2013-06-11 08:44:00,
2013-06-11 04:46:00,66.6,66.0,29.68,East,90,6.0,6.0,98,0.00,,SKC,0.13,VWS V14.01,2013-06-11 08:46:00,
2013-06-11 04:48:00,66.6,66.0,29.68,NNE,22,3.6,10.5,98,0.00,,SKC,0.13,VWS V14.01,2013-06-11 08:48:00,
2013-06-11 04:49:00,66.6,66.0,29.68,SW,225,3.8,6.5,98,0.00,,SKC,0.13,VWS V14.01,2013-06-11 08:49:00,
2013-06-11 04:50:00,66.6,66.0,29.68,South,180,3.1,6.5,98,0.00,,SKC,0.13,VWS V14.01,2013-06-11 08:50:00,
2013-06-11 04:52:00,66.6,66.0,29.68,ENE,68,0.9,4.3,98,0.00,,SKC,0.13,VWS V14.01,2013-06-11 08:52:00,
2013-06-11 04:54:00,66.6,66.0,29.68,ESE,112,6.0,6.0,98,0.00,,SKC,0.13,VWS V14.01,2013-06-11 08:54:00,
2013-06-11 04:56:00,66.6,66.0,29.68,ENE,68,2.9,5.8,98,0.00,,SKC,0.13,VWS V14.01,2013-06-11 08:56:00,
2013-06-11 04:58:00,66.6,66.0,29.65,WSW,248,3.6,4.9,98,0.00,,SKC,0.13,VWS V14.01,2013-06-11 08:58:00,
2013-06-11 05:00:00,66.6,66.0,29.65,SW,225,2.5,4.0,98,0.00,,SKC,0.13,VWS V14.01,2013-06-11 09:00:00,
2013-06-11 05:02:00,66.6,66.0,29.65,WSW,248,3.1,4.0,98,0.00,,SKC,0.13,VWS V14.01,2013-06-11 09:02:00,
2013-06-11 05:04:00,66.6,66.0,29.65,WSW,248,1.3,4.0,98,0.00,,SKC,0.13,VWS V14.01,2013-06-11 09:04:00,
2013-06-11 05:05:00,66.6,66.0,29.65,East,90,2.0,3.8,98,0.00,,SKC,0.13,VWS V14.01,2013-06-11 09:05:00,
2013-06-11 05:06:00,66.4,65.8,29.65,South,180,3.8,5.8,98,0.00,,SKC,0.13,VWS V14.01,2013-06-11 09:06:00,
2013-06-11 05:08:00,66.4,65.8,29.65,SW,225,3.4,5.6,98,0.00,,SKC,0.13,VWS V14.01,2013-06-11 09:08:00,
2013-06-11 05:10:00,66.4,65.8,29.65,North,0,2.9,4.5,98,0.00,,SKC,0.13,VWS V14.01,2013-06-11 09:10:00,
2013-06-11 05:12:00,66.4,65.8,29.65,South,180,5.4,7.4,98,0.00,,SKC,0.13,VWS V14.01,2013-06-11 09:12:00,
2013-06-11 05:14:00,66.4,65.8,29.68,SSW,202,4.7,5.6,98,0.00,,SKC,0.13,VWS V14.01,2013-06-11 09:14:00,
2013-06-11 05:15:00,66.4,65.8,29.68,WSW,248,2.9,4.7,98,0.00,,SKC,0.13,VWS V14.01,2013-06-11 09:15:00,
2013-06-11 05:16:00,66.4,65.8,29.68,WSW,248,2.9,2.9,98,0.00,,SKC,0.13,VWS V14.01,2013-06-11 09:16:00,
2013-06-11 05:18:00,66.4,65.8,29.68,WNW,292,2.9,4.3,98,0.00,,SKC,0.13,VWS V14.01,2013-06-11 09:18:00,
2013-06-11 05:20:00,66.4,65.8,29.68,WSW,248,0.0,2.7,98,0.00,,SKC,0.13,VWS V14.01,2013-06-11 09:20:00,
2013-06-11 05:22:00,66.2,65.6,29.68,WSW,248,3.4,3.8,98,0.00,,SKC,0.13,VWS V14.01,2013-06-11 09:22:00,
2013-06-11 05:24:00,66.2,65.6,29.68,South,180,2.9,4.3,98,0.00,,SKC,0.13,VWS V14.01,2013-06-11 09:24:00,
2013-06-11 05:25:00,66.2,65.6,29.68,WSW,248,3.8,3.8,98,0.00,,SKC,0.13,VWS V14.01,2013-06-11 09:25:00,
2013-06-11 05:26:00,66.2,65.6,29.68,SW,225,2.7,4.5,98,0.00,,SKC,0.13,VWS V14.01,2013-06-11 09:26:00,
2013-06-11 05:28:00,66.2,65.6,29.65,SW,225,2.5,3.1,98,0.00,,SKC,0.13,VWS V14.01,2013-06-11 09:28:00,
2013-06-11 05:30:00,66.2,65.6,29.65,SE,135,5.8,5.8,98,0.00,,SKC,0.13,VWS V14.01,2013-06-11 09:30:00,
2013-06-11 05:32:00,66.2,65.6,29.65,West,270,3.8,5.4,98,0.00,,SKC,0.13,VWS V14.01,2013-06-11 09:32:00,
2013-06-11 05:34:00,66.2,65.6,29.65,SSE,158,5.4,5.6,98,0.00,,SKC,0.13,VWS V14.01,2013-06-11 09:34:00,
2013-06-11 05:35:00,66.0,65.4,29.65,ENE,68,3.6,5.4,98,0.00,,SKC,0.13,VWS V14.01,2013-06-11 09:35:00,
2013-06-11 05:36:00,66.0,65.4,29.65,West,270,1.6,3.6,98,0.00,,SKC,0.13,VWS V14.01,2013-06-11 09:36:00,
2013-06-11 05:38:00,66.0,65.4,29.65,SE,135,1.6,3.4,98,0.00,,SKC,0.13,VWS V14.01,2013-06-11 09:38:00,
2013-06-11 05:40:00,66.0,65.4,29.65,West,270,1.1,4.3,98,0.00,,SKC,0.13,VWS V14.01,2013-06-11 09:40:00,
2013-06-11 05:42:00,66.0,65.4,29.65,SE,135,1.1,4.9,98,0.00,,SKC,0.13,VWS V14.01,2013-06-11 09:42:00,
2013-06-11 05:44:00,66.0,65.4,29.68,North,0,2.2,3.8,98,0.00,,SKC,0.13,VWS V14.01,2013-06-11 09:44:00,
2013-06-11 05:45:00,66.2,65.6,29.68,West,270,3.6,6.7,98,0.00,,SKC,0.13,VWS V14.01,2013-06-11 09:45:00,
2013-06-11 05:46:00,66.2,65.6,29.68,NNE,22,3.8,5.6,98,0.00,,SKC,0.13,VWS V14.01,2013-06-11 09:46:00,
2013-06-11 05:48:00,66.2,65.6,29.68,SW,225,3.4,3.8,98,0.00,,SKC,0.13,VWS V14.01,2013-06-11 09:48:00,
2013-06-11 05:50:00,66.2,65.6,29.68,SE,135,1.1,3.4,98,0.00,,SKC,0.13,VWS V14.01,2013-06-11 09:50:00,
2013-06-11 05:52:00,66.2,65.6,29.68,SSE,158,3.1,4.3,98,0.00,,SKC,0.13,VWS V14.01,2013-06-11 09:52:00,
2013-06-11 05:54:00,66.2,65.6,29.68,West,270,2.0,4.7,98,0.00,,SKC,0.13,VWS V14.01,2013-06-11 09:54:00,
2013-06-11 05:55:00,66.2,65.6,29.68,East,90,3.1,3.1,98,0.00,,SKC,0.13,VWS V14.01,2013-06-11 09:55:00,
2013-06-11 05:56:00,66.2,65.6,29.68,SE,135,3.4,3.4,98,0.00,,SKC,0.13,VWS V14.01,2013-06-11 09:56:00,
2013-06-11 05:58:00,66.2,65.6,29.68,WNW,292,1.6,4.7,98,0.00,,SKC,0.13,VWS V14.01,2013-06-11 09:58:00,
2013-06-11 06:00:00,66.2,65.6,29.68,SE,135,5.4,5.4,98,0.00,,SKC,0.13,VWS V14.01,2013-06-11 10:00:00,
2013-06-11 06:02:00,66.2,65.6,29.68,NNE,22,2.9,5.6,98,0.00,,SKC,0.13,VWS V14.01,2013-06-11 10:02:00,
2013-06-11 06:04:00,66.2,65.6,29.68,NE,45,2.2,2.5,98,0.00,,SKC,0.13,VWS V14.01,2013-06-11 10:04:00,
2013-06-11 06:05:00,66.2,65.6,29.68,East,90,2.7,4.3,98,0.00,,SKC,0.13,VWS V14.01,2013-06-11 10:05:00,
2013-06-11 06:06:00,66.2,65.6,29.68,SW,225,2.2,4.3,98,0.00,,SKC,0.13,VWS V14.01,2013-06-11 10:06:00,
2013-06-11 06:08:00,66.2,65.6,29.68,SE,135,2.5,3.1,98,0.00,,SKC,0.13,VWS V14.01,2013-06-11 10:08:00,
2013-06-11 06:10:00,66.4,65.8,29.68,East,90,1.1,4.3,98,0.00,,SKC,0.13,VWS V14.01,2013-06-11 10:10:00,
2013-06-11 06:12:00,66.2,65.6,29.68,ENE,68,2.7,3.8,98,0.00,,SKC,0.13,VWS V14.01,2013-06-11 10:12:00,
2013-06-11 06:14:00,66.2,65.6,29.68,ESE,112,2.5,2.9,98,0.00,,SKC,0.13,VWS V14.01,2013-06-11 10:14:00,
2013-06-11 06:15:00,66.2,65.6,29.68,North,0,1.1,3.8,98,0.00,,SKC,0.13,VWS V14.01,2013-06-11 10:15:00,
2013-06-11 06:16:00,66.2,65.6,29.68,SSW,202,2.0,2.7,98,0.00,,SKC,0.13,VWS V14.01,2013-06-11 10:16:00,
2013-06-11 06:18:00,66.2,65.6,29.68,South,180,0.0,2.0,98,0.00,,SKC,0.13,VWS V14.01,2013-06-11 10:18:00,
2013-06-11 06:20:00,66.2,65.6,29.68,South,180,0.0,1.6,98,0.00,,SKC,0.13,VWS V14.01,2013-06-11 10:20:00,
2013-06-11 06:22:00,66.2,65.6,29.68,NW,315,2.0,2.0,98,0.00,,SKC,0.13,VWS V14.01,2013-06-11 10:22:00,
2013-06-11 06:24:00,66.2,65.6,29.68,SW,225,0.0,2.2,98,0.00,,SKC,0.13,VWS V14.01,2013-06-11 10:24:00,
2013-06-11 06:25:00,66.2,65.6,29.68,WSW,248,2.7,4.0,98,0.00,,SKC,0.13,VWS V14.01,2013-06-11 10:25:00,
2013-06-11 06:26:00,66.2,65.6,29.68,WSW,248,2.0,4.0,98,0.00,,SKC,0.13,VWS V14.01,2013-06-11 10:26:00,
2013-06-11 06:28:00,66.2,65.6,29.68,WSW,248,1.6,2.9,98,0.00,,SKC,0.13,VWS V14.01,2013-06-11 10:28:00,
2013-06-11 06:30:00,66.4,65.8,29.68,SW,225,0.0,3.4,98,0.00,,SKC,0.13,VWS V14.01,2013-06-11 10:30:00,
2013-06-11 06:32:00,66.4,65.8,29.68,ESE,112,1.3,3.4,98,0.00,,SKC,0.13,VWS V14.01,2013-06-11 10:32:00,
2013-06-11 06:34:00,66.4,65.8,29.68,SW,225,2.5,4.3,98,0.00,,SKC,0.13,VWS V14.01,2013-06-11 10:34:00,
2013-06-11 06:35:00,66.4,65.8,29.68,NE,45,1.1,1.3,98,0.00,,SKC,0.13,VWS V14.01,2013-06-11 10:35:00,
2013-06-11 06:36:00,66.4,65.8,29.68,South,180,0.9,1.3,98,0.00,,SKC,0.13,VWS V14.01,2013-06-11 10:36:00,
2013-06-11 06:38:00,66.4,65.8,29.68,SSW,202,1.1,3.4,98,0.00,,SKC,0.13,VWS V14.01,2013-06-11 10:38:00,
2013-06-11 06:40:00,66.4,65.8,29.68,South,180,0.0,1.6,98,0.00,,SKC,0.13,VWS V14.01,2013-06-11 10:40:00,
2013-06-11 06:42:00,66.4,65.8,29.68,NNW,338,0.0,1.3,98,0.00,,SKC,0.13,VWS V14.01,2013-06-11 10:42:00,
2013-06-11 06:44:00,66.4,65.8,29.68,SE,135,2.9,2.9,98,0.00,,SKC,0.13,VWS V14.01,2013-06-11 10:44:00,
2013-06-11 06:45:00,66.4,65.8,29.68,SW,225,2.2,3.4,98,0.00,,SKC,0.13,VWS V14.01,2013-06-11 10:45:00,
2013-06-11 06:46:00,66.4,65.8,29.68,East,90,0.0,3.4,98,0.00,,SKC,0.13,VWS V14.01,2013-06-11 10:46:00,
2013-06-11 06:48:00,66.4,65.8,29.68,SE,135,3.4,3.4,98,0.00,,SKC,0.13,VWS V14.01,2013-06-11 10:48:00,
2013-06-11 06:50:00,66.4,65.8,29.68,East,90,0.0,1.6,98,0.00,,SKC,0.13,VWS V14.01,2013-06-11 10:50:00,
2013-06-11 06:52:00,66.4,65.8,29.68,SSW,202,0.9,2.0,98,0.00,,SKC,0.13,VWS V14.01,2013-06-11 10:52:00,
2013-06-11 06:54:00,66.4,65.8,29.68,East,90,3.4,3.4,98,0.00,,SKC,0.13,VWS V14.01,2013-06-11 10:54:00,
2013-06-11 06:55:00,66.4,65.8,29.68,West,270,1.6,3.4,98,0.00,,SKC,0.13,VWS V14.01,2013-06-11 10:55:00,
2013-06-11 06:56:00,66.4,65.8,29.68,NE,45,0.9,2.7,98,0.00,,SKC,0.13,VWS V14.01,2013-06-11 10:56:00,
2013-06-11 06:58:00,66.4,65.8,29.68,SSE,158,0.0,0.0,98,0.00,,SKC,0.13,VWS V14.01,2013-06-11 10:58:00,
2013-06-11 07:00:00,66.4,65.8,29.68,NW,315,3.6,3.6,98,0.00,,SKC,0.13,VWS V14.01,2013-06-11 11:00:00,
2013-06-11 07:02:00,66.4,65.8,29.68,WSW,248,1.6,3.6,98,0.00,,SKC,0.13,VWS V14.01,2013-06-11 11:02:00,
2013-06-11 07:04:00,66.4,65.8,29.68,SE,135,1.3,2.5,98,0.00,,SKC,0.13,VWS V14.01,2013-06-11 11:04:00,
2013-06-11 07:05:00,66.4,65.8,29.68,SW,225,0.9,1.3,98,0.00,,SKC,0.13,VWS V14.01,2013-06-11 11:05:00,
2013-06-11 07:06:00,66.4,65.8,29.68,SW,225,0.0,1.1,98,0.00,,SKC,0.13,VWS V14.01,2013-06-11 11:06:00,
2013-06-11 07:08:00,66.4,65.8,29.68,West,270,2.2,2.2,98,0.00,,SKC,0.13,VWS V14.01,2013-06-11 11:08:00,
2013-06-11 07:10:00,66.6,66.0,29.68,NE,45,0.0,1.6,98,0.00,,SKC,0.13,VWS V14.01,2013-06-11 11:10:00,
2013-06-11 07:12:00,66.6,66.0,29.68,West,270,2.0,2.5,98,0.00,,SKC,0.13,VWS V14.01,2013-06-11 11:12:00,
2013-06-11 07:14:00,66.6,66.0,29.68,SW,225,2.2,2.9,98,0.00,,SKC,0.13,VWS V14.01,2013-06-11 11:14:00,
2013-06-11 07:15:00,66.6,66.0,29.68,SW,225,0.0,2.2,98,0.00,,SKC,0.13,VWS V14.01,2013-06-11 11:15:00,
2013-06-11 07:16:00,66.6,66.0,29.68,NE,45,1.1,2.2,98,0.00,,SKC,0.13,VWS V14.01,2013-06-11 11:16:00,
2013-06-11 07:18:00,66.6,66.0,29.68,SSW,202,2.0,4.0,98,0.00,,SKC,0.13,VWS V14.01,2013-06-11 11:18:00,
2013-06-11 07:20:00,66.6,66.0,29.68,SW,225,2.5,3.8,98,0.00,,SKC,0.13,VWS V14.01,2013-06-11 11:20:00,
2013-06-11 07:22:00,66.6,66.0,29.68,South,180,2.2,3.1,98,0.00,,SKC,0.13,VWS V14.01,2013-06-11 11:22:00,
2013-06-11 07:24:00,66.7,66.2,29.68,SW,225,3.4,3.6,98,0.00,,SKC,0.13,VWS V14.01,2013-06-11 11:24:00,
2013-06-11 07:25:00,66.7,66.2,29.68,SW,225,1.1,2.7,98,0.00,,SKC,0.13,VWS V14.01,2013-06-11 11:25:00,
2013-06-11 07:26:00,66.7,66.2,29.68,SW,225,1.1,2.7,98,0.00,,SKC,0.13,VWS V14.01,2013-06-11 11:26:00,
2013-06-11 07:28:00,66.7,66.2,29.68,WSW,248,2.5,3.6,98,0.00,,SKC,0.13,VWS V14.01,2013-06-11 11:28:00,
2013-06-11 07:30:00,66.7,66.2,29.68,ESE,112,2.0,2.5,98,0.00,,SKC,0.13,VWS V14.01,2013-06-11 11:30:00,
2013-06-11 07:32:00,66.7,66.2,29.68,SE,135,3.1,3.1,98,0.00,,SKC,0.13,VWS V14.01,2013-06-11 11:32:00,
2013-06-11 07:34:00,66.7,66.2,29.68,NW,315,2.9,4.0,98,0.00,,SKC,0.13,VWS V14.01,2013-06-11 11:34:00,
2013-06-11 07:35:00,66.9,66.3,29.68,WSW,248,2.0,2.9,98,0.00,,SKC,0.13,VWS V14.01,2013-06-11 11:35:00,
2013-06-11 07:36:00,66.9,66.3,29.68,WSW,248,2.0,2.9,98,0.00,,SKC,0.13,VWS V14.01,2013-06-11 11:36:00,
2013-06-11 07:38:00,66.9,66.3,29.68,SW,225,1.3,2.9,98,0.00,,SKC,0.13,VWS V14.01,2013-06-11 11:38:00,
2013-06-11 07:40:00,66.9,66.3,29.68,SW,225,1.3,2.0,98,0.00,,SKC,0.13,VWS V14.01,2013-06-11 11:40:00,
2013-06-11 07:42:00,67.1,66.5,29.68,WSW,248,1.6,1.6,98,0.00,,SKC,0.13,VWS V14.01,2013-06-11 11:42:00,
2013-06-11 07:44:00,67.1,66.5,29.68,SE,135,2.2,5.6,98,0.00,,SKC,0.13,VWS V14.01,2013-06-11 11:44:00,
2013-06-11 07:45:00,67.3,66.7,29.68,East,90,1.6,2.9,98,0.00,,SKC,0.13,VWS V14.01,2013-06-11 11:45:00,
2013-06-11 07:46:00,67.3,66.7,29.68,West,270,0.9,2.9,98,0.00,,SKC,0.13,VWS V14.01,2013-06-11 11:46:00,
2013-06-11 07:48:00,67.5,66.9,29.68,WSW,248,3.8,3.8,98,0.00,,SKC,0.13,VWS V14.01,2013-06-11 11:48:00,
2013-06-11 07:50:00,67.5,66.9,29.68,NNE,22,3.1,3.8,98,0.00,,SKC,0.13,VWS V14.01,2013-06-11 11:50:00,
2013-06-11 07:51:00,67.5,66.9,29.68,SW,225,2.9,3.8,98,0.00,,SKC,0.13,VWS V14.01,2013-06-11 11:51:00,
2013-06-11 07:52:00,67.5,66.9,29.68,SW,225,1.1,3.1,98,0.00,,SKC,0.13,VWS V14.01,2013-06-11 11:52:00,
2013-06-11 07:54:00,67.5,66.9,29.68,West,270,2.0,3.4,98,0.00,,SKC,0.13,VWS V14.01,2013-06-11 11:54:00,
2013-06-11 07:56:00,67.5,66.9,29.68,ESE,112,2.7,2.7,98,0.00,,SKC,0.13,VWS V14.01,2013-06-11 11:56:00,
2013-06-11 07:58:00,67.5,66.9,29.68,ESE,112,3.4,3.8,98,0.00,,SKC,0.13,VWS V14.01,2013-06-11 11:58:00,
2013-06-11 08:00:00,67.5,66.9,29.68,South,180,3.1,5.4,98,0.00,,SKC,0.13,VWS V14.01,2013-06-11 12:00:00,
2013-06-11 08:01:00,67.5,66.9,29.68,South,180,3.1,3.1,98,0.00,,SKC,0.13,VWS V14.01,2013-06-11 12:01:00,
2013-06-11 08:02:00,67.5,66.9,29.68,West,270,2.2,3.1,98,0.00,,SKC,0.13,VWS V14.01,2013-06-11 12:02:00,
2013-06-11 08:04:00,67.5,66.9,29.68,NNW,338,3.1,3.1,98,0.00,,SKC,0.13,VWS V14.01,2013-06-11 12:04:00,
2013-06-11 08:06:00,67.5,66.9,29.68,South,180,3.1,3.1,98,0.00,,SKC,0.13,VWS V14.01,2013-06-11 12:06:00,
2013-06-11 08:08:00,67.6,67.1,29.68,SE,135,2.7,4.0,98,0.00,,SKC,0.13,VWS V14.01,2013-06-11 12:08:00,
2013-06-11 08:10:00,67.6,67.1,29.68,WSW,248,1.6,3.1,98,0.00,,SKC,0.13,VWS V14.01,2013-06-11 12:10:00,
2013-06-11 08:11:00,67.6,67.1,29.68,SW,225,0.9,2.2,98,0.00,,SKC,0.13,VWS V14.01,2013-06-11 12:11:00,
2013-06-11 08:12:00,67.6,67.1,29.68,SE,135,2.9,2.9,98,0.00,,SKC,0.13,VWS V14.01,2013-06-11 12:12:00,
2013-06-11 08:14:00,67.6,67.1,29.68,West,270,2.5,2.5,98,0.00,,SKC,0.13,VWS V14.01,2013-06-11 12:14:00,
2013-06-11 08:16:00,67.6,67.1,29.68,SW,225,2.5,5.4,98,0.00,,SKC,0.13,VWS V14.01,2013-06-11 12:16:00,
2013-06-11 08:18:00,67.8,67.2,29.68,SW,225,0.0,2.7,98,0.00,,SKC,0.13,VWS V14.01,2013-06-11 12:18:00,
2013-06-11 08:20:00,67.8,67.2,29.68,SW,225,0.0,4.3,98,0.00,,SKC,0.13,VWS V14.01,2013-06-11 12:20:00,
2013-06-11 08:21:00,67.8,67.2,29.68,SSW,202,2.9,2.9,98,0.00,,SKC,0.13,VWS V14.01,2013-06-11 12:21:00,
2013-06-11 08:22:00,67.8,67.2,29.68,East,90,1.3,4.3,98,0.00,,SKC,0.13,VWS V14.01,2013-06-11 12:22:00,
2013-06-11 08:24:00,67.8,67.2,29.68,ENE,68,0.9,2.9,98,0.00,,SKC,0.13,VWS V14.01,2013-06-11 12:24:00,
2013-06-11 08:26:00,68.0,67.4,29.68,WSW,248,2.5,2.9,98,0.00,,SKC,0.13,VWS V14.01,2013-06-11 12:26:00,
2013-06-11 08:28:00,68.2,67.6,29.65,West,270,2.7,3.8,98,0.00,,SKC,0.13,VWS V14.01,2013-06-11 12:28:00,
2013-06-11 08:30:00,68.4,67.8,29.65,SW,225,2.2,3.1,98,0.00,,SKC,0.13,VWS V14.01,2013-06-11 12:30:00,
2013-06-11 08:31:00,68.4,67.8,29.65,WSW,248,3.4,3.4,98,0.00,,SKC,0.13,VWS V14.01,2013-06-11 12:31:00,
2013-06-11 08:32:00,68.4,67.8,29.65,WNW,292,1.3,3.4,98,0.00,,SKC,0.13,VWS V14.01,2013-06-11 12:32:00,
2013-06-11 08:34:00,68.5,68.0,29.65,South,180,2.7,2.9,98,0.00,,SKC,0.13,VWS V14.01,2013-06-11 12:34:00,
2013-06-11 08:36:00,68.5,68.0,29.65,South,180,4.7,4.7,98,0.00,,SKC,0.13,VWS V14.01,2013-06-11 12:36:00,
2013-06-11 08:38:00,68.7,68.1,29.65,WSW,248,5.8,5.8,98,0.00,,SKC,0.13,VWS V14.01,2013-06-11 12:38:00,
2013-06-11 08:40:00,68.7,68.1,29.65,West,270,3.4,3.6,98,0.00,,SKC,0.13,VWS V14.01,2013-06-11 12:40:00,
2013-06-11 08:41:00,68.9,68.3,29.65,WSW,248,3.6,5.6,98,0.00,,SKC,0.13,VWS V14.01,2013-06-11 12:41:00,
2013-06-11 08:42:00,68.9,68.3,29.65,WSW,248,2.7,5.6,98,0.00,,SKC,0.13,VWS V14.01,2013-06-11 12:42:00,
2013-06-11 08:44:00,69.1,68.5,29.68,SW,225,3.6,5.8,98,0.00,,SKC,0.13,VWS V14.01,2013-06-11 12:44:00,
2013-06-11 08:46:00,69.4,68.8,29.68,WSW,248,3.1,5.4,98,0.00,,SKC,0.13,VWS V14.01,2013-06-11 12:46:00,
2013-06-11 08:48:00,69.4,68.9,29.68,WSW,248,3.6,3.6,98,0.00,,SKC,0.13,VWS V14.01,2013-06-11 12:48:00,
2013-06-11 08:50:00,69.4,68.9,29.68,West,270,4.7,5.6,98,0.00,,SKC,0.13,VWS V14.01,2013-06-11 12:50:00,
2013-06-11 08:51:00,69.6,69.0,29.68,SW,225,2.7,4.7,98,0.00,,SKC,0.13,VWS V14.01,2013-06-11 12:51:00,
2013-06-11 08:52:00,69.6,69.0,29.68,SW,225,2.9,4.7,98,0.00,,SKC,0.13,VWS V14.01,2013-06-11 12:52:00,
2013-06-11 08:54:00,69.6,69.0,29.68,SW,225,3.6,5.4,98,0.00,,SKC,0.13,VWS V14.01,2013-06-11 12:54:00,
2013-06-11 08:56:00,69.6,69.0,29.68,SW,225,4.9,4.9,98,0.00,,SKC,0.13,VWS V14.01,2013-06-11 12:56:00,
2013-06-11 08:58:00,69.6,69.0,29.68,WSW,248,6.0,6.0,98,0.00,,SKC,0.13,VWS V14.01,2013-06-11 12:58:00,
2013-06-11 09:00:00,69.6,69.0,29.68,SSW,202,3.8,6.0,98,0.00,,SKC,0.13,VWS V14.01,2013-06-11 13:00:00,
2013-06-11 09:01:00,69.6,69.0,29.68,West,270,4.3,4.7,98,0.00,,SKC,0.13,VWS V14.01,2013-06-11 13:01:00,
2013-06-11 09:02:00,69.6,69.0,29.68,SW,225,3.1,4.7,98,0.00,,SKC,0.13,VWS V14.01,2013-06-11 13:02:00,
2013-06-11 09:04:00,69.6,69.0,29.68,West,270,1.3,4.7,98,0.00,,SKC,0.13,VWS V14.01,2013-06-11 13:04:00,
2013-06-11 09:06:00,69.6,69.0,29.68,SW,225,4.0,4.7,98,0.00,,SKC,0.13,VWS V14.01,2013-06-11 13:06:00,
2013-06-11 09:08:00,69.8,68.9,29.68,SW,225,3.1,3.1,97,0.00,,SKC,0.13,VWS V14.01,2013-06-11 13:08:00,
2013-06-11 09:10:00,69.8,68.9,29.68,SW,225,2.9,4.3,97,0.00,,SKC,0.13,VWS V14.01,2013-06-11 13:10:00,
2013-06-11 09:11:00,69.8,68.9,29.68,SW,225,5.6,5.6,97,0.00,,SKC,0.13,VWS V14.01,2013-06-11 13:11:00,
2013-06-11 09:12:00,69.8,68.9,29.68,WSW,248,3.8,5.6,97,0.00,,SKC,0.13,VWS V14.01,2013-06-11 13:12:00,
2013-06-11 09:14:00,69.6,69.0,29.68,West,270,3.6,4.3,98,0.00,,SKC,0.13,VWS V14.01,2013-06-11 13:14:00,
2013-06-11 09:16:00,69.8,68.9,29.68,SW,225,3.6,3.6,97,0.00,,SKC,0.13,VWS V14.01,2013-06-11 13:16:00,
2013-06-11 09:18:00,70.0,69.1,29.68,West,270,2.5,3.6,97,0.00,,SKC,0.13,VWS V14.01,2013-06-11 13:18:00,
2013-06-11 09:20:00,70.2,69.3,29.68,WSW,248,3.6,4.0,97,0.00,,SKC,0.13,VWS V14.01,2013-06-11 13:20:00,
2013-06-11 09:21:00,70.3,69.4,29.68,SW,225,2.7,3.6,97,0.00,,SKC,0.13,VWS V14.01,2013-06-11 13:21:00,
2013-06-11 09:22:00,70.3,69.4,29.68,SW,225,2.7,3.6,97,0.00,,SKC,0.13,VWS V14.01,2013-06-11 13:22:00,
2013-06-11 09:24:00,70.7,69.8,29.68,WSW,248,3.8,4.9,97,0.00,,SKC,0.13,VWS V14.01,2013-06-11 13:24:00,
2013-06-11 09:26:00,70.7,69.8,29.68,WSW,248,2.9,4.7,97,0.00,,SKC,0.13,VWS V14.01,2013-06-11 13:26:00,
2013-06-11 09:28:00,70.9,70.0,29.65,WSW,248,4.7,4.7,97,0.00,,SKC,0.13,VWS V14.01,2013-06-11 13:28:00,
2013-06-11 09:30:00,71.1,70.2,29.65,West,270,2.7,4.3,97,0.00,,SKC,0.13,VWS V14.01,2013-06-11 13:30:00,
2013-06-11 09:31:00,71.2,70.3,29.65,SW,225,2.7,4.0,97,0.00,,SKC,0.13,VWS V14.01,2013-06-11 13:31:00,
2013-06-11 09:32:00,71.4,70.8,29.65,SW,225,2.9,4.0,98,0.00,,SKC,0.13,VWS V14.01,2013-06-11 13:32:00,
2013-06-11 09:34:00,71.6,70.7,29.65,West,270,5.8,5.8,97,0.00,,SKC,0.13,VWS V14.01,2013-06-11 13:34:00,
2013-06-11 09:36:00,71.8,70.9,29.65,SW,225,4.0,4.3,97,0.00,,SKC,0.13,VWS V14.01,2013-06-11 13:36:00,
2013-06-11 09:38:00,71.8,70.9,29.65,WSW,248,4.9,5.6,97,0.00,,SKC,0.13,VWS V14.01,2013-06-11 13:38:00,
2013-06-11 09:40:00,72.1,71.2,29.65,WSW,248,6.5,6.5,97,0.00,,SKC,0.13,VWS V14.01,2013-06-11 13:40:00,
2013-06-11 09:41:00,72.3,71.4,29.65,NW,315,4.0,5.8,97,0.00,,SKC,0.13,VWS V14.01,2013-06-11 13:41:00,
2013-06-11 09:42:00,72.3,71.4,29.65,WSW,248,4.0,5.8,97,0.00,,SKC,0.13,VWS V14.01,2013-06-11 13:42:00,
2013-06-11 09:44:00,72.5,71.6,29.65,West,270,4.9,4.9,97,0.00,,SKC,0.13,VWS V14.01,2013-06-11 13:44:00,
2013-06-11 09:46:00,72.7,71.8,29.65,WSW,248,6.5,6.5,97,0.00,,SKC,0.13,VWS V14.01,2013-06-11 13:46:00,
2013-06-11 09:48:00,72.9,72.0,29.65,West,270,2.9,6.5,97,0.00,,SKC,0.13,VWS V14.01,2013-06-11 13:48:00,
2013-06-11 09:50:00,72.7,71.8,29.65,SW,225,4.3,4.3,97,0.00,,SKC,0.13,VWS V14.01,2013-06-11 13:50:00,
2013-06-11 09:51:00,72.7,71.5,29.65,West,270,4.0,4.0,96,0.00,,SKC,0.13,VWS V14.01,2013-06-11 13:51:00,
2013-06-11 09:52:00,72.7,71.5,29.65,West,270,2.5,4.0,96,0.00,,SKC,0.13,VWS V14.01,2013-06-11 13:52:00,
2013-06-11 09:54:00,72.7,71.5,29.65,WSW,248,3.1,5.6,96,0.00,,SKC,0.13,VWS V14.01,2013-06-11 13:54:00,
2013-06-11 09:56:00,73.0,71.8,29.65,SW,225,6.3,6.3,96,0.00,,SKC,0.13,VWS V14.01,2013-06-11 13:56:00,
2013-06-11 09:58:00,73.0,71.8,29.65,West,270,4.9,6.3,96,0.00,,SKC,0.13,VWS V14.01,2013-06-11 13:58:00,
2013-06-11 10:00:00,73.2,72.0,29.65,West,270,3.8,5.6,96,0.00,,SKC,0.13,VWS V14.01,2013-06-11 14:00:00,
2013-06-11 10:01:00,73.6,72.4,29.65,West,270,4.0,4.0,96,0.00,,SKC,0.13,VWS V14.01,2013-06-11 14:01:00,
2013-06-11 10:02:00,73.6,72.4,29.65,WSW,248,4.7,4.7,96,0.00,,SKC,0.13,VWS V14.01,2013-06-11 14:02:00,
2013-06-11 10:04:00,73.6,72.4,29.65,WSW,248,5.8,6.0,96,0.00,,SKC,0.13,VWS V14.01,2013-06-11 14:04:00,
2013-06-11 10:06:00,73.6,72.4,29.65,West,270,3.6,5.8,96,0.00,,SKC,0.13,VWS V14.01,2013-06-11 14:06:00,
2013-06-11 10:08:00,73.6,72.1,29.65,West,270,4.0,5.8,95,0.00,,SKC,0.13,VWS V14.01,2013-06-11 14:08:00,
2013-06-11 10:10:00,73.9,72.4,29.65,West,270,4.9,4.9,95,0.00,,SKC,0.13,VWS V14.01,2013-06-11 14:10:00,
2013-06-11 10:11:00,74.1,72.6,29.65,NW,315,4.5,5.8,95,0.00,,SKC,0.13,VWS V14.01,2013-06-11 14:11:00,
2013-06-11 10:12:00,74.1,72.6,29.65,West,270,4.3,5.8,95,0.00,,SKC,0.13,VWS V14.01,2013-06-11 14:12:00,
2013-06-11 10:14:00,74.1,72.6,29.65,NW,315,4.3,5.8,95,0.00,,SKC,0.13,VWS V14.01,2013-06-11 14:14:00,
2013-06-11 10:16:00,74.3,72.8,29.65,West,270,4.3,5.8,95,0.00,,SKC,0.13,VWS V14.01,2013-06-11 14:16:00,
2013-06-11 10:18:00,74.5,73.0,29.65,West,270,3.8,5.8,95,0.00,,SKC,0.13,VWS V14.01,2013-06-11 14:18:00,
2013-06-11 10:20:00,74.3,72.5,29.65,WNW,292,4.7,4.7,94,0.00,,SKC,0.13,VWS V14.01,2013-06-11 14:20:00,
2013-06-11 10:21:00,74.1,72.0,29.65,NW,315,4.3,4.3,93,0.00,,SKC,0.13,VWS V14.01,2013-06-11 14:21:00,
2013-06-11 10:22:00,74.1,72.0,29.65,West,270,3.1,4.3,93,0.00,,SKC,0.13,VWS V14.01,2013-06-11 14:22:00,
2013-06-11 10:24:00,73.9,71.8,29.65,West,270,3.4,4.0,93,0.00,,SKC,0.13,VWS V14.01,2013-06-11 14:24:00,
2013-06-11 10:26:00,73.9,71.8,29.65,West,270,4.3,5.6,93,0.00,,SKC,0.13,VWS V14.01,2013-06-11 14:26:00,
2013-06-11 10:28:00,73.9,71.8,29.65,West,270,5.8,5.8,93,0.00,,SKC,0.13,VWS V14.01,2013-06-11 14:28:00,
2013-06-11 10:30:00,73.9,71.8,29.65,West,270,5.4,5.4,93,0.00,,SKC,0.13,VWS V14.01,2013-06-11 14:30:00,
2013-06-11 10:31:00,73.4,70.6,29.65,West,270,3.4,5.4,91,0.00,,SKC,0.13,VWS V14.01,2013-06-11 14:31:00,
2013-06-11 10:32:00,73.4,70.6,29.65,West,270,3.4,5.4,91,0.00,,SKC,0.13,VWS V14.01,2013-06-11 14:32:00,
2013-06-11 10:34:00,73.0,70.3,29.65,NW,315,4.3,4.3,91,0.00,,SKC,0.13,VWS V14.01,2013-06-11 14:34:00,
2013-06-11 10:36:00,72.3,69.2,29.65,NW,315,4.3,4.3,90,0.00,,SKC,0.13,VWS V14.01,2013-06-11 14:36:00,
2013-06-11 10:38:00,72.0,68.6,29.65,West,270,3.4,4.3,89,0.00,,SKC,0.13,VWS V14.01,2013-06-11 14:38:00,
2013-06-11 10:40:00,71.4,68.3,29.65,NW,315,4.0,5.4,90,0.00,,SKC,0.13,VWS V14.01,2013-06-11 14:40:00,
2013-06-11 10:42:00,71.1,67.7,29.65,NW,315,1.6,3.4,89,0.00,,SKC,0.13,VWS V14.01,2013-06-11 14:42:00,
2013-06-11 10:44:00,70.9,67.5,29.65,WNW,292,2.0,3.8,89,0.00,,SKC,0.13,VWS V14.01,2013-06-11 14:44:00,
2013-06-11 10:46:00,70.5,67.1,29.65,WNW,292,2.0,3.8,89,0.00,,SKC,0.13,VWS V14.01,2013-06-11 14:46:00,
2013-06-11 10:47:00,70.5,67.4,29.65,North,0,2.7,2.7,90,0.00,,SKC,0.13,VWS V14.01,2013-06-11 14:47:00,
2013-06-11 10:48:00,70.5,67.4,29.65,NW,315,2.9,2.9,90,0.00,,SKC,0.13,VWS V14.01,2013-06-11 14:48:00,
2013-06-11 10:50:00,70.7,67.9,29.65,West,270,3.1,3.1,91,0.00,,SKC,0.13,VWS V14.01,2013-06-11 14:50:00,
2013-06-11 10:52:00,71.1,68.6,29.65,NW,315,3.6,3.8,92,0.00,,SKC,0.13,VWS V14.01,2013-06-11 14:52:00,
2013-06-11 10:54:00,71.2,69.1,29.65,WNW,292,3.8,4.3,93,0.00,,SKC,0.13,VWS V14.01,2013-06-11 14:54:00,
2013-06-11 10:56:00,71.4,69.3,29.65,West,270,3.1,3.1,93,0.00,,SKC,0.13,VWS V14.01,2013-06-11 14:56:00,
2013-06-11 10:57:00,71.6,69.5,29.65,NW,315,3.4,4.0,93,0.00,,SKC,0.13,VWS V14.01,2013-06-11 14:57:00,
2013-06-11 10:58:00,71.6,69.5,29.65,WNW,292,4.0,4.0,93,0.00,,SKC,0.13,VWS V14.01,2013-06-11 14:58:00,
2013-06-11 11:00:00,71.8,69.3,29.65,NNW,338,2.5,3.6,92,0.00,,SKC,0.13,VWS V14.01,2013-06-11 15:00:00,
2013-06-11 11:02:00,72.1,70.0,29.65,NNW,338,3.6,4.7,93,0.00,,SKC,0.13,VWS V14.01,2013-06-11 15:02:00,
2013-06-11 11:04:00,72.3,70.2,29.65,WNW,292,2.9,2.9,93,0.00,,SKC,0.13,VWS V14.01,2013-06-11 15:04:00,
2013-06-11 11:06:00,72.3,70.2,29.65,West,270,3.1,3.1,93,0.00,,SKC,0.13,VWS V14.01,2013-06-11 15:06:00,
2013-06-11 11:07:00,72.3,69.9,29.65,WNW,292,3.4,3.6,92,0.00,,SKC,0.13,VWS V14.01,2013-06-11 15:07:00,
2013-06-11 11:08:00,72.3,69.9,29.65,West,270,2.9,3.6,92,0.00,,SKC,0.13,VWS V14.01,2013-06-11 15:08:00,
2013-06-11 11:10:00,72.5,70.1,29.65,WSW,248,1.6,3.1,92,0.00,,SKC,0.13,VWS V14.01,2013-06-11 15:10:00,
2013-06-11 11:12:00,72.7,70.2,29.65,North,0,2.5,3.4,92,0.00,,SKC,0.13,VWS V14.01,2013-06-11 15:12:00,
2013-06-11 11:14:00,72.7,70.2,29.65,West,270,2.9,3.4,92,0.00,,SKC,0.13,VWS V14.01,2013-06-11 15:14:00,
2013-06-11 11:16:00,72.7,70.2,29.65,NW,315,2.9,4.9,92,0.00,,SKC,0.13,VWS V14.01,2013-06-11 15:16:00,
2013-06-11 11:17:00,72.7,69.9,29.65,West,270,5.4,5.4,91,0.00,,SKC,0.13,VWS V14.01,2013-06-11 15:17:00,
2013-06-11 11:18:00,72.5,69.4,29.65,WNW,292,4.3,5.4,90,0.00,,SKC,0.13,VWS V14.01,2013-06-11 15:18:00,
2013-06-11 11:20:00,72.5,69.4,29.65,West,270,2.5,4.0,90,0.00,,SKC,0.13,VWS V14.01,2013-06-11 15:20:00,
2013-06-11 11:22:00,72.3,68.9,29.65,NW,315,2.5,3.8,89,0.00,,SKC,0.13,VWS V14.01,2013-06-11 15:22:00,
2013-06-11 11:24:00,72.1,68.7,29.65,NW,315,4.0,4.3,89,0.00,,SKC,0.13,VWS V14.01,2013-06-11 15:24:00,
2013-06-11 11:26:00,72.5,69.4,29.65,West,270,3.1,6.0,90,0.00,,SKC,0.13,VWS V14.01,2013-06-11 15:26:00,
2013-06-11 11:27:00,72.5,69.4,29.65,NW,315,2.7,3.6,90,0.00,,SKC,0.13,VWS V14.01,2013-06-11 15:27:00,
2013-06-11 11:28:00,72.5,69.4,29.65,NW,315,2.0,3.4,90,0.00,,SKC,0.13,VWS V14.01,2013-06-11 15:28:00,
2013-06-11 11:30:00,72.5,69.4,29.65,West,270,3.1,4.3,90,0.00,,SKC,0.13,VWS V14.01,2013-06-11 15:30:00,
2013-06-11 11:32:00,72.7,69.6,29.65,WNW,292,4.0,4.0,90,0.00,,SKC,0.13,VWS V14.01,2013-06-11 15:32:00,
2013-06-11 11:34:00,72.9,69.8,29.65,West,270,3.8,5.4,90,0.00,,SKC,0.13,VWS V14.01,2013-06-11 15:34:00,
2013-06-11 11:36:00,72.9,69.8,29.65,NW,315,2.0,4.9,90,0.00,,SKC,0.13,VWS V14.01,2013-06-11 15:36:00,
2013-06-11 11:37:00,72.9,69.8,29.65,West,270,4.0,4.9,90,0.00,,SKC,0.13,VWS V14.01,2013-06-11 15:37:00,
2013-06-11 11:38:00,72.9,69.4,29.65,NW,315,3.6,4.9,89,0.00,,SKC,0.13,VWS V14.01,2013-06-11 15:38:00,
2013-06-11 11:40:00,72.7,69.2,29.65,NW,315,3.1,4.3,89,0.00,,SKC,0.13,VWS V14.01,2013-06-11 15:40:00,
2013-06-11 11:42:00,72.5,69.1,29.65,NW,315,3.8,3.8,89,0.00,,SKC,0.13,VWS V14.01,2013-06-11 15:42:00,
2013-06-11 11:44:00,72.7,69.2,29.65,WNW,292,4.0,4.0,89,0.00,,SKC,0.13,VWS V14.01,2013-06-11 15:44:00,
2013-06-11 11:46:00,72.9,69.4,29.65,NW,315,2.7,4.0,89,0.00,,SKC,0.13,VWS V14.01,2013-06-11 15:46:00,
2013-06-11 11:47:00,72.9,69.4,29.65,WNW,292,3.1,4.7,89,0.00,,SKC,0.13,VWS V14.01,2013-06-11 15:47:00,
2013-06-11 11:48:00,72.9,69.4,29.65,West,270,2.5,3.8,89,0.00,,SKC,0.13,VWS V14.01,2013-06-11 15:48:00,
2013-06-11 11:50:00,72.9,69.1,29.65,NW,315,2.5,2.7,88,0.00,,SKC,0.13,VWS V14.01,2013-06-11 15:50:00,
2013-06-11 11:52:00,72.9,69.4,29.65,NW,315,1.3,3.4,89,0.00,,SKC,0.13,VWS V14.01,2013-06-11 15:52:00,
2013-06-11 11:54:00,72.9,69.4,29.65,West,270,3.1,4.0,89,0.00,,SKC,0.13,VWS V14.01,2013-06-11 15:54:00,
2013-06-11 11:56:00,73.0,69.9,29.65,West,270,3.6,4.3,90,0.00,,SKC,0.13,VWS V14.01,2013-06-11 15:56:00,
2013-06-11 11:57:00,73.2,70.1,29.65,North,0,3.1,3.6,90,0.00,,SKC,0.13,VWS V14.01,2013-06-11 15:57:00,
2013-06-11 11:58:00,73.2,70.1,29.65,NW,315,3.6,3.6,90,0.00,,SKC,0.13,VWS V14.01,2013-06-11 15:58:00,
2013-06-11 12:00:00,73.4,70.3,29.65,WNW,292,3.6,4.9,90,0.00,,SKC,0.13,VWS V14.01,2013-06-11 16:00:00,
2013-06-11 12:02:00,73.8,70.7,29.65,WNW,292,2.7,3.8,90,0.00,,SKC,0.13,VWS V14.01,2013-06-11 16:02:00,
2013-06-11 12:04:00,73.9,71.2,29.65,West,270,2.9,3.4,91,0.00,,SKC,0.13,VWS V14.01,2013-06-11 16:04:00,
2013-06-11 12:06:00,74.1,71.3,29.65,West,270,3.6,4.0,91,0.00,,SKC,0.13,VWS V14.01,2013-06-11 16:06:00,
2013-06-11 12:07:00,74.1,71.0,29.65,West,270,3.8,4.9,90,0.00,,SKC,0.13,VWS V14.01,2013-06-11 16:07:00,
2013-06-11 12:08:00,74.3,71.2,29.65,West,270,4.7,4.9,90,0.00,,SKC,0.13,VWS V14.01,2013-06-11 16:08:00,
2013-06-11 12:10:00,74.3,71.2,29.65,West,270,4.3,5.4,90,0.00,,SKC,0.13,VWS V14.01,2013-06-11 16:10:00,
2013-06-11 12:12:00,74.3,71.2,29.65,NW,315,2.9,4.7,90,0.00,,SKC,0.13,VWS V14.01,2013-06-11 16:12:00,
2013-06-11 12:14:00,74.1,70.7,29.62,NW,315,3.6,4.0,89,0.00,,SKC,0.13,VWS V14.01,2013-06-11 16:14:00,
2013-06-11 12:16:00,74.1,70.3,29.62,WNW,292,3.8,3.8,88,0.00,,SKC,0.13,VWS V14.01,2013-06-11 16:16:00,
2013-06-11 12:17:00,74.1,70.3,29.62,NNW,338,2.9,3.8,88,0.00,,SKC,0.13,VWS V14.01,2013-06-11 16:17:00,
2013-06-11 12:18:00,74.1,70.3,29.62,WNW,292,3.1,3.8,88,0.00,,SKC,0.13,VWS V14.01,2013-06-11 16:18:00,
2013-06-11 12:20:00,74.1,70.7,29.62,West,270,2.0,3.4,89,0.00,,SKC,0.13,VWS V14.01,2013-06-11 16:20:00,
2013-06-11 12:22:00,74.5,71.4,29.62,West,270,2.7,4.0,90,0.00,,SKC,0.13,VWS V14.01,2013-06-11 16:22:00,
2013-06-11 12:24:00,74.5,71.0,29.62,NW,315,4.0,4.7,89,0.00,,SKC,0.13,VWS V14.01,2013-06-11 16:24:00,
2013-06-11 12:26:00,74.7,71.2,29.62,West,270,3.1,3.6,89,0.00,,SKC,0.13,VWS V14.01,2013-06-11 16:26:00,
2013-06-11 12:27:00,74.7,71.2,29.62,NW,315,3.8,4.9,89,0.00,,SKC,0.13,VWS V14.01,2013-06-11 16:27:00,
2013-06-11 12:28:00,74.8,71.4,29.62,NW,315,4.0,4.9,89,0.00,,SKC,0.13,VWS V14.01,2013-06-11 16:28:00,
2013-06-11 12:30:00,74.8,71.4,29.62,NW,315,4.9,5.4,89,0.00,,SKC,0.13,VWS V14.01,2013-06-11 16:30:00,
2013-06-11 12:32:00,74.7,70.5,29.62,WNW,292,3.4,3.6,87,0.00,,SKC,0.13,VWS V14.01,2013-06-11 16:32:00,
2013-06-11 12:34:00,74.5,70.4,29.62,WNW,292,3.6,3.6,87,0.00,,SKC,0.13,VWS V14.01,2013-06-11 16:34:00,
2013-06-11 12:36:00,74.5,70.4,29.62,West,270,2.9,3.8,87,0.00,,SKC,0.13,VWS V14.01,2013-06-11 16:36:00,
2013-06-11 12:37:00,74.7,70.5,29.62,WNW,292,3.6,3.8,87,0.00,,SKC,0.13,VWS V14.01,2013-06-11 16:37:00,
2013-06-11 12:38:00,74.7,70.5,29.62,NW,315,4.0,4.0,87,0.00,,SKC,0.13,VWS V14.01,2013-06-11 16:38:00,
2013-06-11 12:40:00,74.7,70.5,29.62,WNW,292,2.5,3.4,87,0.00,,SKC,0.13,VWS V14.01,2013-06-11 16:40:00,
2013-06-11 12:42:00,74.7,70.5,29.62,NNW,338,2.7,2.7,87,0.00,,SKC,0.13,VWS V14.01,2013-06-11 16:42:00,
2013-06-11 12:44:00,74.8,70.7,29.62,West,270,4.7,4.7,87,0.00,,SKC,0.13,VWS V14.01,2013-06-11 16:44:00,
2013-06-11 12:46:00,75.0,70.9,29.62,WNW,292,4.0,4.3,87,0.00,,SKC,0.13,VWS V14.01,2013-06-11 16:46:00,
2013-06-11 12:47:00,75.0,70.9,29.62,WNW,292,3.6,4.0,87,0.00,,SKC,0.13,VWS V14.01,2013-06-11 16:47:00,
2013-06-11 12:48:00,75.2,70.7,29.62,WNW,292,3.1,3.6,86,0.00,,SKC,0.13,VWS V14.01,2013-06-11 16:48:00,
2013-06-11 12:50:00,75.2,70.4,29.62,WNW,292,2.5,2.7,85,0.00,,SKC,0.13,VWS V14.01,2013-06-11 16:50:00,
2013-06-11 12:52:00,75.2,70.7,29.62,West,270,2.5,3.6,86,0.00,,SKC,0.13,VWS V14.01,2013-06-11 16:52:00,
2013-06-11 12:54:00,75.0,70.2,29.62,West,270,2.7,3.8,85,0.00,,SKC,0.13,VWS V14.01,2013-06-11 16:54:00,
2013-06-11 12:56:00,74.7,69.5,29.62,NW,315,2.5,2.5,84,0.00,,SKC,0.13,VWS V14.01,2013-06-11 16:56:00,
2013-06-11 12:57:00,74.5,69.0,29.62,WNW,292,3.1,3.1,83,0.00,,SKC,0.13,VWS V14.01,2013-06-11 16:57:00,
2013-06-11 12:58:00,74.5,69.0,29.62,NW,315,2.5,3.1,83,0.00,,SKC,0.13,VWS V14.01,2013-06-11 16:58:00,
2013-06-11 13:00:00,74.1,69.0,29.62,West,270,3.4,3.4,84,0.00,,SKC,0.13,VWS V14.01,2013-06-11 17:00:00,
2013-06-11 13:02:00,73.9,68.8,29.62,North,0,3.1,3.1,84,0.00,,SKC,0.13,VWS V14.01,2013-06-11 17:02:00,
2013-06-11 13:04:00,74.1,69.3,29.62,NW,315,0.9,3.1,85,0.00,,SKC,0.13,VWS V14.01,2013-06-11 17:04:00,
2013-06-11 13:06:00,74.3,69.5,29.62,West,270,1.6,2.5,85,0.00,,SKC,0.13,VWS V14.01,2013-06-11 17:06:00,
2013-06-11 13:07:00,74.3,69.5,29.62,NW,315,2.9,2.9,85,0.00,,SKC,0.13,VWS V14.01,2013-06-11 17:07:00,
2013-06-11 13:08:00,74.3,69.5,29.62,WNW,292,1.6,2.9,85,0.00,,SKC,0.13,VWS V14.01,2013-06-11 17:08:00,
2013-06-11 13:10:00,74.7,70.2,29.62,West,270,1.3,2.0,86,0.00,,SKC,0.13,VWS V14.01,2013-06-11 17:10:00,
2013-06-11 13:12:00,74.7,70.2,29.62,East,90,3.8,3.8,86,0.00,,SKC,0.13,VWS V14.01,2013-06-11 17:12:00,
2013-06-11 13:14:00,74.7,69.9,29.62,SE,135,1.6,4.7,85,0.00,,SKC,0.13,VWS V14.01,2013-06-11 17:14:00,
2013-06-11 13:16:00,74.5,70.0,29.62,ESE,112,2.9,3.1,86,0.00,,SKC,0.13,VWS V14.01,2013-06-11 17:16:00,
2013-06-11 13:17:00,74.3,69.5,29.62,ESE,112,0.0,2.9,85,0.00,,SKC,0.13,VWS V14.01,2013-06-11 17:17:00,
2013-06-11 13:18:00,74.3,69.5,29.62,ESE,112,0.0,2.9,85,0.00,,SKC,0.13,VWS V14.01,2013-06-11 17:18:00,
2013-06-11 13:20:00,74.1,69.7,29.62,ESE,112,3.4,4.3,86,0.00,,SKC,0.13,VWS V14.01,2013-06-11 17:20:00,
2013-06-11 13:22:00,74.1,70.0,29.62,ESE,112,2.9,3.6,87,0.00,,SKC,0.13,VWS V14.01,2013-06-11 17:22:00,
2013-06-11 13:24:00,73.9,69.8,29.62,West,270,1.1,3.8,87,0.00,,SKC,0.13,VWS V14.01,2013-06-11 17:24:00,
2013-06-11 13:26:00,73.8,69.7,29.62,East,90,2.2,2.2,87,0.00,,SKC,0.13,VWS V14.01,2013-06-11 17:26:00,
2013-06-11 13:27:00,73.8,69.3,29.62,South,180,2.2,3.8,86,0.00,,SKC,0.13,VWS V14.01,2013-06-11 17:27:00,
2013-06-11 13:28:00,73.8,69.3,29.62,South,180,1.1,3.8,86,0.00,,SKC,0.13,VWS V14.01,2013-06-11 17:28:00,
2013-06-11 13:30:00,73.8,69.7,29.62,SE,135,3.6,5.4,87,0.00,,SKC,0.13,VWS V14.01,2013-06-11 17:30:00,
2013-06-11 13:32:00,73.8,70.0,29.62,East,90,3.4,4.3,88,0.00,,SKC,0.13,VWS V14.01,2013-06-11 17:32:00,
2013-06-11 13:34:00,73.9,70.2,29.62,SE,135,4.9,5.8,88,0.00,,SKC,0.13,VWS V14.01,2013-06-11 17:34:00,
2013-06-11 13:36:00,74.3,70.8,29.62,SE,135,2.0,3.4,89,0.00,,SKC,0.13,VWS V14.01,2013-06-11 17:36:00,
2013-06-11 13:37:00,74.7,71.2,29.62,ESE,112,4.9,4.9,89,0.00,,SKC,0.13,VWS V14.01,2013-06-11 17:37:00,
2013-06-11 13:38:00,74.7,71.2,29.62,SSE,158,4.3,4.9,89,0.00,,SKC,0.13,VWS V14.01,2013-06-11 17:38:00,
2013-06-11 13:40:00,74.8,71.4,29.62,SSE,158,2.9,4.0,89,0.00,,SKC,0.13,VWS V14.01,2013-06-11 17:40:00,
2013-06-11 13:42:00,75.0,71.6,29.59,SE,135,2.9,5.4,89,0.00,,SKC,0.13,VWS V14.01,2013-06-11 17:42:00,
2013-06-11 13:44:00,75.0,71.6,29.59,East,90,2.5,2.9,89,0.00,,SKC,0.13,VWS V14.01,2013-06-11 17:44:00,
2013-06-11 13:46:00,75.2,71.4,29.59,SE,135,2.0,3.1,88,0.00,,SKC,0.13,VWS V14.01,2013-06-11 17:46:00,
2013-06-11 13:47:00,75.2,71.4,29.59,SE,135,3.1,3.6,88,0.00,,SKC,0.13,VWS V14.01,2013-06-11 17:47:00,
2013-06-11 13:48:00,75.4,71.6,29.59,SE,135,3.1,3.6,88,0.00,,SKC,0.13,VWS V14.01,2013-06-11 17:48:00,
2013-06-11 13:50:00,75.6,71.4,29.59,East,90,1.6,2.7,87,0.00,,SKC,0.13,VWS V14.01,2013-06-11 17:50:00,
2013-06-11 13:52:00,75.7,71.6,29.59,SE,135,0.0,2.5,87,0.00,,SKC,0.13,VWS V14.01,2013-06-11 17:52:00,
2013-06-11 13:54:00,75.9,71.8,29.59,South,180,0.9,2.2,87,0.00,,SKC,0.13,VWS V14.01,2013-06-11 17:54:00,
2013-06-11 13:56:00,76.1,72.3,29.59,East,90,0.0,1.1,88,0.00,,SKC,0.13,VWS V14.01,2013-06-11 17:56:00,
2013-06-11 13:57:00,75.9,71.8,29.62,West,270,1.1,2.2,87,0.00,,SKC,0.13,VWS V14.01,2013-06-11 17:57:00,
2013-06-11 13:58:00,75.9,71.8,29.62,West,270,1.1,2.2,87,0.00,,SKC,0.13,VWS V14.01,2013-06-11 17:58:00,
2013-06-11 14:00:00,75.9,71.8,29.62,South,180,3.1,3.6,87,0.00,,SKC,0.13,VWS V14.01,2013-06-11 18:00:00,
2013-06-11 14:02:00,76.1,71.9,29.62,SE,135,2.5,2.5,87,0.00,,SKC,0.13,VWS V14.01,2013-06-11 18:02:00,
2013-06-11 14:04:00,76.3,72.1,29.62,NW,315,2.0,2.7,87,0.00,,SKC,0.13,VWS V14.01,2013-06-11 18:04:00,
2013-06-11 14:06:00,76.5,72.3,29.62,SSE,158,2.5,4.5,87,0.00,,SKC,0.13,VWS V14.01,2013-06-11 18:06:00,
2013-06-11 14:07:00,76.6,72.1,29.62,West,270,2.2,2.2,86,0.00,,SKC,0.13,VWS V14.01,2013-06-11 18:07:00,
2013-06-11 14:08:00,76.6,72.1,29.62,West,270,2.2,2.2,86,0.00,,SKC,0.13,VWS V14.01,2013-06-11 18:08:00,
2013-06-11 14:10:00,76.8,72.3,29.62,ENE,68,1.1,1.1,86,0.00,,SKC,0.13,VWS V14.01,2013-06-11 18:10:00,
2013-06-11 14:12:00,77.0,72.2,29.59,SSW,202,0.0,1.1,85,0.00,,SKC,0.13,VWS V14.01,2013-06-11 18:12:00,
2013-06-11 14:14:00,77.0,72.5,29.59,NW,315,2.2,2.2,86,0.00,,SKC,0.13,VWS V14.01,2013-06-11 18:14:00,
2013-06-11 14:16:00,77.2,72.7,29.59,South,180,2.2,2.9,86,0.00,,SKC,0.13,VWS V14.01,2013-06-11 18:16:00,
2013-06-11 14:17:00,77.2,72.3,29.59,SE,135,2.7,3.4,85,0.00,,SKC,0.13,VWS V14.01,2013-06-11 18:17:00,
2013-06-11 14:18:00,77.2,72.3,29.59,SE,135,2.7,3.4,85,0.00,,SKC,0.13,VWS V14.01,2013-06-11 18:18:00,
2013-06-11 14:20:00,77.2,72.0,29.59,SE,135,3.4,3.4,84,0.00,,SKC,0.13,VWS V14.01,2013-06-11 18:20:00,
2013-06-11 14:22:00,77.2,72.0,29.59,East,90,0.0,2.9,84,0.00,,SKC,0.13,VWS V14.01,2013-06-11 18:22:00,
2013-06-11 14:24:00,77.0,71.8,29.59,SSW,202,1.6,1.6,84,0.00,,SKC,0.13,VWS V14.01,2013-06-11 18:24:00,
2013-06-11 14:26:00,77.0,71.4,29.59,South,180,2.5,2.5,83,0.00,,SKC,0.13,VWS V14.01,2013-06-11 18:26:00,
2013-06-11 14:28:00,77.0,71.8,29.59,SW,225,2.9,4.3,84,0.00,,SKC,0.13,VWS V14.01,2013-06-11 18:28:00,
2013-06-11 14:30:00,76.8,70.6,29.59,ESE,112,6.0,6.0,81,0.00,,SKC,0.13,VWS V14.01,2013-06-11 18:30:00,
2013-06-11 14:32:00,76.6,70.4,29.59,WNW,292,1.3,3.6,81,0.00,,SKC,0.13,VWS V14.01,2013-06-11 18:32:00,
2013-06-11 14:33:00,76.6,70.4,29.59,SW,225,3.8,3.8,81,0.00,,SKC,0.13,VWS V14.01,2013-06-11 18:33:00,
2013-06-11 14:34:00,76.5,69.8,29.59,WSW,248,3.8,5.6,80,0.00,,SKC,0.13,VWS V14.01,2013-06-11 18:34:00,
2013-06-11 14:36:00,76.5,70.2,29.59,ENE,68,3.6,4.3,81,0.00,,SKC,0.13,VWS V14.01,2013-06-11 18:36:00,
2013-06-11 14:38:00,76.6,70.4,29.59,WSW,248,4.9,5.6,81,0.00,,SKC,0.13,VWS V14.01,2013-06-11 18:38:00,
2013-06-11 14:40:00,76.8,70.9,29.59,West,270,2.9,3.4,82,0.00,,SKC,0.13,VWS V14.01,2013-06-11 18:40:00,
2013-06-11 14:42:00,77.2,71.3,29.59,South,180,2.2,7.2,82,0.00,,SKC,0.13,VWS V14.01,2013-06-11 18:42:00,
2013-06-11 14:43:00,77.2,71.3,29.59,SW,225,1.1,5.4,82,0.00,,SKC,0.13,VWS V14.01,2013-06-11 18:43:00,
2013-06-11 14:44:00,77.2,71.3,29.59,West,270,2.0,4.0,82,0.00,,SKC,0.13,VWS V14.01,2013-06-11 18:44:00,
2013-06-11 14:46:00,77.4,71.4,29.59,South,180,2.2,4.0,82,0.00,,SKC,0.13,VWS V14.01,2013-06-11 18:46:00,
2013-06-11 14:48:00,77.5,70.9,29.59,ESE,112,3.4,6.3,80,0.00,,SKC,0.13,VWS V14.01,2013-06-11 18:48:00,
2013-06-11 14:50:00,77.7,70.7,29.59,WSW,248,1.3,5.8,79,0.00,,SKC,0.13,VWS V14.01,2013-06-11 18:50:00,
2013-06-11 14:52:00,77.7,71.4,29.59,SW,225,5.4,5.4,81,0.00,,SKC,0.13,VWS V14.01,2013-06-11 18:52:00,
2013-06-11 14:53:00,77.9,71.6,29.59,North,0,1.3,5.4,81,0.00,,SKC,0.13,VWS V14.01,2013-06-11 18:53:00,
2013-06-11 14:54:00,77.9,71.2,29.59,West,270,3.4,6.5,80,0.00,,SKC,0.13,VWS V14.01,2013-06-11 18:54:00,
2013-06-11 14:56:00,77.9,70.5,29.59,SE,135,2.9,7.2,78,0.00,,SKC,0.13,VWS V14.01,2013-06-11 18:56:00,
2013-06-11 14:58:00,77.7,70.3,29.59,SW,225,3.6,5.4,78,0.00,,SKC,0.13,VWS V14.01,2013-06-11 18:58:00,
2013-06-11 15:00:00,77.7,70.3,29.59,SW,225,1.3,5.8,78,0.00,,SKC,0.13,VWS V14.01,2013-06-11 19:00:00,
2013-06-11 15:02:00,77.9,70.5,29.59,SW,225,2.7,5.4,78,0.00,,SKC,0.13,VWS V14.01,2013-06-11 19:02:00,
2013-06-11 15:03:00,78.1,71.0,29.59,WSW,248,2.7,4.5,79,0.00,,SKC,0.13,VWS V14.01,2013-06-11 19:03:00,
2013-06-11 15:04:00,78.1,71.0,29.59,SW,225,6.0,6.0,79,0.00,,SKC,0.13,VWS V14.01,2013-06-11 19:04:00,
2013-06-11 15:06:00,78.3,70.5,29.59,SW,225,2.0,4.0,77,0.00,,SKC,0.13,VWS V14.01,2013-06-11 19:06:00,
2013-06-11 15:08:00,78.3,70.8,29.59,SW,225,3.4,6.5,78,0.00,,SKC,0.13,VWS V14.01,2013-06-11 19:08:00,
2013-06-11 15:10:00,78.1,70.3,29.59,WSW,248,4.0,6.0,77,0.00,,SKC,0.13,VWS V14.01,2013-06-11 19:10:00,
2013-06-11 15:12:00,78.3,70.5,29.59,WSW,248,3.8,6.3,77,0.00,,SKC,0.13,VWS V14.01,2013-06-11 19:12:00,
2013-06-11 15:13:00,78.3,70.5,29.59,South,180,2.5,5.6,77,0.00,,SKC,0.13,VWS V14.01,2013-06-11 19:13:00,
2013-06-11 15:14:00,78.3,70.8,29.59,West,270,2.9,3.1,78,0.00,,SKC,0.13,VWS V14.01,2013-06-11 19:14:00,
2013-06-11 15:16:00,78.3,70.5,29.59,WSW,248,5.6,5.6,77,0.00,,SKC,0.13,VWS V14.01,2013-06-11 19:16:00,
2013-06-11 15:18:00,78.1,69.9,29.59,South,180,2.9,6.0,76,0.00,,SKC,0.13,VWS V14.01,2013-06-11 19:18:00,
2013-06-11 15:20:00,77.9,70.1,29.59,SSE,158,6.5,6.5,77,0.00,,SKC,0.13,VWS V14.01,2013-06-11 19:20:00,
2013-06-11 15:22:00,77.7,69.6,29.59,ESE,112,6.3,7.6,76,0.00,,SKC,0.13,VWS V14.01,2013-06-11 19:22:00,
2013-06-11 15:23:00,77.7,69.9,29.59,South,180,3.4,6.5,77,0.00,,SKC,0.13,VWS V14.01,2013-06-11 19:23:00,
2013-06-11 15:24:00,77.5,69.4,29.59,NE,45,2.5,6.5,76,0.00,,SKC,0.13,VWS V14.01,2013-06-11 19:24:00,
2013-06-11 15:26:00,77.5,69.8,29.59,SE,135,2.7,6.3,77,0.00,,SKC,0.13,VWS V14.01,2013-06-11 19:26:00,
2013-06-11 15:28:00,77.5,69.4,29.59,South,180,3.4,5.6,76,0.00,,SKC,0.13,VWS V14.01,2013-06-11 19:28:00,
2013-06-11 15:30:00,77.5,69.4,29.56,East,90,2.2,4.7,76,0.00,,SKC,0.13,VWS V14.01,2013-06-11 19:30:00,
2013-06-11 15:32:00,77.5,69.4,29.56,SW,225,6.0,6.0,76,0.00,,SKC,0.13,VWS V14.01,2013-06-11 19:32:00,
2013-06-11 15:33:00,77.5,69.8,29.56,South,180,2.0,6.0,77,0.00,,SKC,0.13,VWS V14.01,2013-06-11 19:33:00,
2013-06-11 15:34:00,77.5,69.8,29.56,SW,225,5.8,5.8,77,0.00,,SKC,0.13,VWS V14.01,2013-06-11 19:34:00,
2013-06-11 15:36:00,77.4,68.8,29.56,WSW,248,3.6,5.4,75,0.00,,SKC,0.13,VWS V14.01,2013-06-11 19:36:00,
2013-06-11 15:38:00,77.4,68.8,29.56,West,270,3.8,4.9,75,0.00,,SKC,0.13,VWS V14.01,2013-06-11 19:38:00,
2013-06-11 15:40:00,77.4,69.2,29.56,SSW,202,3.1,7.2,76,0.00,,SKC,0.13,VWS V14.01,2013-06-11 19:40:00,
2013-06-11 15:42:00,77.2,68.7,29.56,NE,45,4.0,8.1,75,0.00,,SKC,0.13,VWS V14.01,2013-06-11 19:42:00,
2013-06-11 15:43:00,77.0,68.5,29.56,NW,315,3.4,6.5,75,0.00,,SKC,0.13,VWS V14.01,2013-06-11 19:43:00,
2013-06-11 15:44:00,77.0,68.9,29.56,West,270,2.5,6.3,76,0.00,,SKC,0.13,VWS V14.01,2013-06-11 19:44:00,
2013-06-11 15:46:00,77.0,68.9,29.56,East,90,2.9,3.6,76,0.00,,SKC,0.13,VWS V14.01,2013-06-11 19:46:00,
2013-06-11 15:48:00,76.8,69.1,29.56,SSW,202,4.7,4.7,77,0.00,,SKC,0.13,VWS V14.01,2013-06-11 19:48:00,
2013-06-11 15:50:00,76.8,68.7,29.56,WSW,248,1.3,2.9,76,0.00,,SKC,0.13,VWS V14.01,2013-06-11 19:50:00,
2013-06-11 15:52:00,76.8,69.1,29.56,NW,315,3.1,6.0,77,0.00,,SKC,0.13,VWS V14.01,2013-06-11 19:52:00,
2013-06-11 15:53:00,76.8,68.7,29.56,West,270,2.5,12.1,76,0.00,,SKC,0.13,VWS V14.01,2013-06-11 19:53:00,
2013-06-11 15:54:00,76.8,69.1,29.56,SW,225,4.3,12.1,77,0.00,,SKC,0.13,VWS V14.01,2013-06-11 19:54:00,
2013-06-11 15:56:00,76.8,69.1,29.56,ESE,112,4.0,7.6,77,0.00,,SKC,0.13,VWS V14.01,2013-06-11 19:56:00,
2013-06-11 15:58:00,76.6,68.5,29.56,SSW,202,3.4,9.4,76,0.00,,SKC,0.13,VWS V14.01,2013-06-11 19:58:00,
2013-06-11 16:00:00,76.6,68.5,29.56,NW,315,4.0,6.3,76,0.00,,SKC,0.13,VWS V14.01,2013-06-11 20:00:00,
2013-06-11 16:02:00,76.6,68.5,29.56,NW,315,1.3,6.3,76,0.00,,SKC,0.13,VWS V14.01,2013-06-11 20:02:00,
2013-06-11 16:03:00,76.6,68.5,29.56,WSW,248,2.9,4.9,76,0.00,,SKC,0.13,VWS V14.01,2013-06-11 20:03:00,
2013-06-11 16:04:00,76.6,68.5,29.56,SW,225,5.4,5.4,76,0.00,,SKC,0.13,VWS V14.01,2013-06-11 20:04:00,
2013-06-11 16:06:00,76.8,69.1,29.56,SW,225,4.0,4.0,77,0.00,,SKC,0.13,VWS V14.01,2013-06-11 20:06:00,
2013-06-11 16:08:00,76.6,68.5,29.56,SSW,202,4.3,7.4,76,0.00,,SKC,0.13,VWS V14.01,2013-06-11 20:08:00,
2013-06-11 16:10:00,76.6,68.5,29.56,SW,225,2.7,5.8,76,0.00,,SKC,0.13,VWS V14.01,2013-06-11 20:10:00,
2013-06-11 16:12:00,76.5,68.0,29.56,South,180,6.0,6.5,75,0.00,,SKC,0.13,VWS V14.01,2013-06-11 20:12:00,
2013-06-11 16:13:00,76.3,67.8,29.56,NE,45,3.8,5.8,75,0.00,,SKC,0.13,VWS V14.01,2013-06-11 20:13:00,
2013-06-11 16:14:00,76.3,68.2,29.56,SW,225,3.8,5.8,76,0.00,,SKC,0.13,VWS V14.01,2013-06-11 20:14:00,
2013-06-11 16:16:00,76.3,67.8,29.56,WSW,248,8.1,8.1,75,0.00,,SKC,0.13,VWS V14.01,2013-06-11 20:16:00,
2013-06-11 16:18:00,75.9,67.8,29.56,SW,225,2.7,5.8,76,0.00,,SKC,0.13,VWS V14.01,2013-06-11 20:18:00,
2013-06-11 16:20:00,75.9,67.8,29.56,SE,135,3.8,4.9,76,0.00,,SKC,0.13,VWS V14.01,2013-06-11 20:20:00,
2013-06-11 16:22:00,75.9,67.8,29.56,East,90,2.7,4.9,76,0.00,,SKC,0.13,VWS V14.01,2013-06-11 20:22:00,
2013-06-11 16:23:00,75.9,68.2,29.56,South,180,3.4,5.6,77,0.00,,SKC,0.13,VWS V14.01,2013-06-11 20:23:00,
2013-06-11 16:24:00,75.9,68.2,29.56,SSE,158,5.4,5.6,77,0.00,,SKC,0.13,VWS V14.01,2013-06-11 20:24:00,
2013-06-11 16:26:00,75.7,68.0,29.56,NE,45,6.0,6.0,77,0.00,,SKC,0.13,VWS V14.01,2013-06-11 20:26:00,
2013-06-11 16:28:00,75.6,67.5,29.56,SE,135,4.0,4.9,76,0.00,,SKC,0.13,VWS V14.01,2013-06-11 20:28:00,
2013-06-11 16:30:00,75.6,67.5,29.56,ESE,112,2.7,5.4,76,0.00,,SKC,0.13,VWS V14.01,2013-06-11 20:30:00,
2013-06-11 16:32:00,75.4,67.3,29.56,West,270,2.7,2.7,76,0.00,,SKC,0.13,VWS V14.01,2013-06-11 20:32:00,
2013-06-11 16:33:00,75.2,67.1,29.56,SW,225,2.9,4.0,76,0.00,,SKC,0.13,VWS V14.01,2013-06-11 20:33:00,
2013-06-11 16:34:00,75.2,67.1,29.56,SW,225,2.5,3.8,76,0.00,,SKC,0.13,VWS V14.01,2013-06-11 20:34:00,
2013-06-11 16:36:00,75.0,67.3,29.56,WSW,248,3.4,4.0,77,0.00,,SKC,0.13,VWS V14.01,2013-06-11 20:36:00,
2013-06-11 16:38:00,74.8,67.2,29.56,SW,225,2.7,5.6,77,0.00,,SKC,0.13,VWS V14.01,2013-06-11 20:38:00,
2013-06-11 16:40:00,74.8,67.2,29.56,SW,225,5.6,7.6,77,0.00,,SKC,0.13,VWS V14.01,2013-06-11 20:40:00,
2013-06-11 16:42:00,74.5,66.8,29.56,South,180,0.9,3.1,77,0.00,,SKC,0.13,VWS V14.01,2013-06-11 20:42:00,
2013-06-11 16:43:00,74.3,66.6,29.56,West,270,2.9,7.4,77,0.00,,SKC,0.13,VWS V14.01,2013-06-11 20:43:00,
2013-06-11 16:44:00,74.3,67.0,29.56,SW,225,4.7,7.4,78,0.00,,SKC,0.13,VWS V14.01,2013-06-11 20:44:00,
2013-06-11 16:46:00,74.3,66.6,29.56,SW,225,2.5,4.0,77,0.00,,SKC,0.13,VWS V14.01,2013-06-11 20:46:00,
2013-06-11 16:48:00,74.1,66.8,29.56,NE,45,0.0,4.5,78,0.00,,SKC,0.13,VWS V14.01,2013-06-11 20:48:00,
2013-06-11 16:50:00,73.9,66.7,29.56,WSW,248,8.5,8.5,78,0.00,,SKC,0.13,VWS V14.01,2013-06-11 20:50:00,
2013-06-11 16:52:00,73.8,67.2,29.56,SE,135,3.4,3.4,80,0.00,,SKC,0.13,VWS V14.01,2013-06-11 20:52:00,
2013-06-11 16:53:00,73.6,67.0,29.56,West,270,3.6,4.7,80,0.00,,SKC,0.13,VWS V14.01,2013-06-11 20:53:00,
2013-06-11 16:54:00,73.6,67.0,29.56,WSW,248,2.0,4.7,80,0.00,,SKC,0.13,VWS V14.01,2013-06-11 20:54:00,
2013-06-11 16:56:00,73.4,66.5,29.56,SW,225,0.0,4.3,79,0.00,,SKC,0.13,VWS V14.01,2013-06-11 20:56:00,
2013-06-11 16:58:00,73.2,66.7,29.56,SW,225,2.5,2.5,80,0.00,,SKC,0.13,VWS V14.01,2013-06-11 20:58:00,
2013-06-11 17:00:00,73.2,67.0,29.56,East,90,1.1,2.0,81,0.00,,SKC,0.13,VWS V14.01,2013-06-11 21:00:00,
2013-06-11 17:02:00,73.0,66.9,29.56,SW,225,2.0,5.4,81,0.00,,SKC,0.13,VWS V14.01,2013-06-11 21:02:00,
2013-06-11 17:03:00,72.9,66.7,29.56,NE,45,1.1,2.7,81,0.00,,SKC,0.13,VWS V14.01,2013-06-11 21:03:00,
2013-06-11 17:04:00,72.9,66.7,29.56,South,180,0.0,2.7,81,0.00,,SKC,0.13,VWS V14.01,2013-06-11 21:04:00,
2013-06-11 17:06:00,72.7,67.6,29.56,NNW,338,2.9,3.1,84,0.00,,SKC,0.13,VWS V14.01,2013-06-11 21:06:00,
2013-06-11 17:08:00,72.3,66.9,29.56,ENE,68,1.6,2.2,83,0.00,,SKC,0.13,VWS V14.01,2013-06-11 21:08:00,
2013-06-11 17:10:00,72.3,66.9,29.56,SE,135,2.2,3.4,83,0.00,,SKC,0.13,VWS V14.01,2013-06-11 21:10:00,
2013-06-11 17:12:00,72.1,67.0,29.56,WSW,248,0.0,3.4,84,0.00,,SKC,0.13,VWS V14.01,2013-06-11 21:12:00,
2013-06-11 17:13:00,72.0,67.2,29.56,WSW,248,1.3,1.6,85,0.00,,SKC,0.13,VWS V14.01,2013-06-11 21:13:00,
2013-06-11 17:14:00,72.0,67.2,29.56,WSW,248,1.3,1.6,85,0.00,,SKC,0.13,VWS V14.01,2013-06-11 21:14:00,
2013-06-11 17:16:00,71.8,67.0,29.56,SW,225,1.3,1.3,85,0.00,,SKC,0.13,VWS V14.01,2013-06-11 21:16:00,
2013-06-11 17:18:00,71.6,66.9,29.56,WSW,248,2.5,2.7,85,0.00,,SKC,0.13,VWS V14.01,2013-06-11 21:18:00,
2013-06-11 17:20:00,71.6,67.2,29.56,SW,225,0.0,2.5,86,0.04,,SKC,0.17,VWS V14.01,2013-06-11 21:20:00,
2013-06-11 17:22:00,71.4,67.7,29.56,South,180,2.2,2.2,88,0.04,,SKC,0.17,VWS V14.01,2013-06-11 21:22:00,
2013-06-11 17:23:00,71.2,67.8,29.56,South,180,0.0,1.3,89,0.04,,SKC,0.17,VWS V14.01,2013-06-11 21:23:00,
2013-06-11 17:24:00,71.2,67.8,29.56,South,180,0.0,1.3,89,0.04,,SKC,0.17,VWS V14.01,2013-06-11 21:24:00,
2013-06-11 17:26:00,71.2,67.8,29.56,South,180,0.0,1.3,89,0.04,,SKC,0.17,VWS V14.01,2013-06-11 21:26:00,
2013-06-11 17:28:00,71.1,67.7,29.56,SSW,202,0.9,3.8,89,0.04,,SKC,0.17,VWS V14.01,2013-06-11 21:28:00,
2013-06-11 17:30:00,70.9,67.5,29.56,SW,225,0.9,0.9,89,0.04,,SKC,0.17,VWS V14.01,2013-06-11 21:30:00,
2013-06-11 17:32:00,70.7,67.3,29.56,ENE,68,0.9,2.9,89,0.04,,SKC,0.17,VWS V14.01,2013-06-11 21:32:00,
2013-06-11 17:33:00,70.7,67.3,29.56,SW,225,7.6,7.6,89,0.04,,SKC,0.17,VWS V14.01,2013-06-11 21:33:00,
2013-06-11 17:34:00,70.7,67.3,29.56,SW,225,7.6,7.6,89,0.04,,SKC,0.17,VWS V14.01,2013-06-11 21:34:00,
2013-06-11 17:36:00,70.5,67.1,29.56,South,180,2.5,4.0,89,0.04,,SKC,0.17,VWS V14.01,2013-06-11 21:36:00,
2013-06-11 17:38:00,70.3,66.9,29.56,East,90,3.1,4.7,89,0.04,,SKC,0.17,VWS V14.01,2013-06-11 21:38:00,
2013-06-11 17:40:00,70.3,66.9,29.56,SSE,158,3.1,4.7,89,0.04,,SKC,0.17,VWS V14.01,2013-06-11 21:40:00,
2013-06-11 17:42:00,70.3,66.9,29.56,SE,135,2.9,3.8,89,0.04,,SKC,0.17,VWS V14.01,2013-06-11 21:42:00,
2013-06-11 17:43:00,70.2,66.8,29.56,South,180,5.4,5.4,89,0.04,,SKC,0.17,VWS V14.01,2013-06-11 21:43:00,
2013-06-11 17:44:00,70.2,66.8,29.56,South,180,5.4,5.4,89,0.04,,SKC,0.17,VWS V14.01,2013-06-11 21:44:00,
2013-06-11 17:46:00,70.2,67.1,29.56,ESE,112,1.1,2.9,90,0.04,,SKC,0.17,VWS V14.01,2013-06-11 21:46:00,
2013-06-11 17:48:00,70.2,67.4,29.56,SSW,202,2.0,3.1,91,0.04,,SKC,0.17,VWS V14.01,2013-06-11 21:48:00,
2013-06-11 17:50:00,70.2,67.4,29.56,West,270,1.3,6.0,91,0.04,,SKC,0.17,VWS V14.01,2013-06-11 21:50:00,
2013-06-11 17:52:00,70.2,67.4,29.56,SSW,202,3.1,3.8,91,0.04,,SKC,0.17,VWS V14.01,2013-06-11 21:52:00,
2013-06-11 17:53:00,70.2,67.4,29.56,WSW,248,3.4,5.6,91,0.04,,SKC,0.17,VWS V14.01,2013-06-11 21:53:00,
2013-06-11 17:54:00,70.2,67.4,29.56,West,270,3.4,5.6,91,0.04,,SKC,0.17,VWS V14.01,2013-06-11 21:54:00,
2013-06-11 17:56:00,70.2,67.4,29.56,SW,225,6.5,6.5,91,0.04,,SKC,0.17,VWS V14.01,2013-06-11 21:56:00,
2013-06-11 17:58:00,70.0,67.2,29.53,WSW,248,2.9,4.0,91,0.04,,SKC,0.17,VWS V14.01,2013-06-11 21:58:00,
2013-06-11 18:00:00,70.0,67.2,29.53,SW,225,3.8,4.7,91,0.04,,SKC,0.17,VWS V14.01,2013-06-11 22:00:00,
2013-06-11 18:02:00,70.0,67.2,29.53,WNW,292,2.7,4.7,91,0.04,,SKC,0.17,VWS V14.01,2013-06-11 22:02:00,
2013-06-11 18:03:00,70.0,67.6,29.53,WSW,248,3.1,4.7,92,0.04,,SKC,0.17,VWS V14.01,2013-06-11 22:03:00,
2013-06-11 18:04:00,70.0,67.6,29.53,SW,225,3.1,4.7,92,0.04,,SKC,0.17,VWS V14.01,2013-06-11 22:04:00,
2013-06-11 18:06:00,70.0,67.6,29.53,SW,225,4.7,4.7,92,0.04,,SKC,0.17,VWS V14.01,2013-06-11 22:06:00,
2013-06-11 18:08:00,70.2,67.7,29.53,SE,135,2.5,2.9,92,0.04,,SKC,0.17,VWS V14.01,2013-06-11 22:08:00,
2013-06-11 18:10:00,70.2,67.7,29.53,SW,225,2.9,2.9,92,0.04,,SKC,0.17,VWS V14.01,2013-06-11 22:10:00,
2013-06-11 18:12:00,70.2,67.7,29.53,SSW,202,1.3,4.0,92,0.04,,SKC,0.17,VWS V14.01,2013-06-11 22:12:00,
2013-06-11 18:13:00,70.2,67.7,29.53,SW,225,1.3,3.8,92,0.04,,SKC,0.17,VWS V14.01,2013-06-11 22:13:00,
2013-06-11 18:14:00,70.2,67.7,29.53,SW,225,1.3,3.8,92,0.04,,SKC,0.17,VWS V14.01,2013-06-11 22:14:00,
2013-06-11 18:16:00,70.2,67.7,29.53,SW,225,1.6,2.9,92,0.04,,SKC,0.17,VWS V14.01,2013-06-11 22:16:00,
2013-06-11 18:18:00,70.2,68.1,29.53,West,270,1.1,3.4,93,0.04,,SKC,0.17,VWS V14.01,2013-06-11 22:18:00,
2013-06-11 18:20:00,70.2,67.7,29.53,West,270,0.0,4.7,92,0.04,,SKC,0.17,VWS V14.01,2013-06-11 22:20:00,
2013-06-11 18:22:00,70.2,67.7,29.53,West,270,2.5,3.6,92,0.00,,SKC,0.17,VWS V14.01,2013-06-11 22:22:00,
2013-06-11 18:23:00,70.2,67.7,29.53,SW,225,3.6,3.6,92,0.00,,SKC,0.17,VWS V14.01,2013-06-11 22:23:00,
2013-06-11 18:24:00,70.2,67.7,29.53,SW,225,3.6,3.6,92,0.00,,SKC,0.17,VWS V14.01,2013-06-11 22:24:00,
2013-06-11 18:26:00,70.2,67.7,29.53,West,270,1.6,4.3,92,0.00,,SKC,0.17,VWS V14.01,2013-06-11 22:26:00,
2013-06-11 18:28:00,70.3,67.9,29.53,West,270,2.2,4.0,92,0.00,,SKC,0.17,VWS V14.01,2013-06-11 22:28:00,
2013-06-11 18:30:00,70.3,67.9,29.53,SW,225,2.7,2.7,92,0.00,,SKC,0.17,VWS V14.01,2013-06-11 22:30:00,
2013-06-11 18:32:00,70.3,68.2,29.53,SW,225,4.7,4.7,93,0.00,,SKC,0.17,VWS V14.01,2013-06-11 22:32:00,
2013-06-11 18:33:00,70.3,68.2,29.53,SW,225,2.9,4.0,93,0.00,,SKC,0.17,VWS V14.01,2013-06-11 22:33:00,
2013-06-11 18:34:00,70.3,68.2,29.53,SW,225,2.9,4.0,93,0.00,,SKC,0.17,VWS V14.01,2013-06-11 22:34:00,
2013-06-11 18:36:00,70.5,68.4,29.53,West,270,3.1,3.4,93,0.00,,SKC,0.17,VWS V14.01,2013-06-11 22:36:00,
2013-06-11 18:38:00,70.3,68.2,29.53,West,270,3.1,3.6,93,0.00,,SKC,0.17,VWS V14.01,2013-06-11 22:38:00,
2013-06-11 18:40:00,70.3,68.2,29.53,SW,225,3.6,4.0,93,0.00,,SKC,0.17,VWS V14.01,2013-06-11 22:40:00,
2013-06-11 18:42:00,70.3,68.2,29.53,SW,225,3.6,4.3,93,0.00,,SKC,0.17,VWS V14.01,2013-06-11 22:42:00,
2013-06-11 18:43:00,70.3,67.9,29.53,SW,225,3.1,3.6,92,0.00,,SKC,0.17,VWS V14.01,2013-06-11 22:43:00,
2013-06-11 18:44:00,70.3,67.9,29.53,SW,225,3.1,3.6,92,0.00,,SKC,0.17,VWS V14.01,2013-06-11 22:44:00,
2013-06-11 18:46:00,70.3,67.9,29.53,SW,225,3.4,4.0,92,0.00,,SKC,0.17,VWS V14.01,2013-06-11 22:46:00,
2013-06-11 18:48:00,70.5,68.4,29.53,WSW,248,2.5,3.8,93,0.00,,SKC,0.17,VWS V14.01,2013-06-11 22:48:00,
2013-06-11 18:50:00,70.5,68.4,29.53,SW,225,1.6,4.3,93,0.00,,SKC,0.17,VWS V14.01,2013-06-11 22:50:00,
2013-06-11 18:52:00,70.5,68.4,29.53,SW,225,3.4,5.6,93,0.00,,SKC,0.17,VWS V14.01,2013-06-11 22:52:00,
2013-06-11 18:53:00,70.5,68.4,29.53,East,90,0.0,5.8,93,0.00,,SKC,0.17,VWS V14.01,2013-06-11 22:53:00,
2013-06-11 18:54:00,70.5,68.4,29.53,East,90,0.0,5.8,93,0.00,,SKC,0.17,VWS V14.01,2013-06-11 22:54:00,
2013-06-11 18:56:00,70.5,68.4,29.53,SSW,202,1.1,3.1,93,0.00,,SKC,0.17,VWS V14.01,2013-06-11 22:56:00,
2013-06-11 18:58:00,70.7,68.6,29.53,West,270,2.7,3.1,93,0.00,,SKC,0.17,VWS V14.01,2013-06-11 22:58:00,
2013-06-11 19:00:00,70.5,68.4,29.53,West,270,1.6,3.6,93,0.00,,SKC,0.17,VWS V14.01,2013-06-11 23:00:00,
2013-06-11 19:02:00,70.5,68.4,29.53,SW,225,2.9,3.8,93,0.00,,SKC,0.17,VWS V14.01,2013-06-11 23:02:00,
2013-06-11 19:03:00,70.5,68.4,29.53,South,180,2.5,2.9,93,0.00,,SKC,0.17,VWS V14.01,2013-06-11 23:03:00,
2013-06-11 19:04:00,70.5,68.4,29.53,West,270,2.7,2.9,93,0.00,,SKC,0.17,VWS V14.01,2013-06-11 23:04:00,
2013-06-11 19:06:00,70.5,68.4,29.53,WSW,248,2.5,3.8,93,0.00,,SKC,0.17,VWS V14.01,2013-06-11 23:06:00,
2013-06-11 19:08:00,70.5,68.1,29.53,SW,225,3.6,3.8,92,0.00,,SKC,0.17,VWS V14.01,2013-06-11 23:08:00,
2013-06-11 19:10:00,70.5,68.1,29.53,West,270,2.5,3.8,92,0.00,,SKC,0.17,VWS V14.01,2013-06-11 23:10:00,
2013-06-11 19:12:00,70.3,67.9,29.53,WSW,248,2.7,3.1,92,0.00,,SKC,0.17,VWS V14.01,2013-06-11 23:12:00,
2013-06-11 19:13:00,70.3,68.2,29.56,SW,225,3.1,3.4,93,0.00,,SKC,0.17,VWS V14.01,2013-06-11 23:13:00,
2013-06-11 19:14:00,70.3,67.9,29.56,West,270,2.9,3.4,92,0.00,,SKC,0.17,VWS V14.01,2013-06-11 23:14:00,
2013-06-11 19:16:00,70.3,68.2,29.56,SW,225,3.6,3.6,93,0.00,,SKC,0.17,VWS V14.01,2013-06-11 23:16:00,
2013-06-11 19:18:00,70.3,67.9,29.56,NW,315,4.9,4.9,92,0.00,,SKC,0.17,VWS V14.01,2013-06-11 23:18:00,
2013-06-11 19:19:00,70.3,67.9,29.56,West,270,5.6,5.8,92,0.00,,SKC,0.17,VWS V14.01,2013-06-11 23:19:00,
2013-06-11 19:20:00,70.3,68.2,29.56,West,270,7.4,7.6,93,0.00,,SKC,0.17,VWS V14.01,2013-06-11 23:20:00,
2013-06-11 19:22:00,70.3,67.9,29.56,NW,315,5.4,8.7,92,0.00,,SKC,0.17,VWS V14.01,2013-06-11 23:22:00,
2013-06-11 19:24:00,70.2,67.7,29.56,West,270,5.8,6.0,92,0.00,,SKC,0.17,VWS V14.01,2013-06-11 23:24:00,
2013-06-11 19:26:00,70.0,67.6,29.56,NW,315,7.2,7.8,92,0.04,,SKC,0.21,VWS V14.01,2013-06-11 23:26:00,
2013-06-11 19:28:00,70.0,67.6,29.56,West,270,4.3,6.0,92,0.04,,SKC,0.21,VWS V14.01,2013-06-11 23:28:00,
2013-06-11 19:29:00,69.8,67.4,29.56,West,270,4.0,5.8,92,0.08,,SKC,0.25,VWS V14.01,2013-06-11 23:29:00,
2013-06-11 19:30:00,69.8,67.4,29.56,West,270,3.6,5.8,92,0.08,,SKC,0.25,VWS V14.01,2013-06-11 23:30:00,
2013-06-11 19:32:00,69.4,67.0,29.56,West,270,6.5,6.5,92,0.08,,SKC,0.25,VWS V14.01,2013-06-11 23:32:00,
2013-06-11 19:34:00,69.4,67.0,29.56,West,270,3.8,6.0,92,0.08,,SKC,0.25,VWS V14.01,2013-06-11 23:34:00,
2013-06-11 19:36:00,69.3,66.8,29.56,West,270,3.8,4.0,92,0.08,,SKC,0.25,VWS V14.01,2013-06-11 23:36:00,
2013-06-11 19:38:00,68.9,66.5,29.56,West,270,4.0,4.0,92,0.08,,SKC,0.25,VWS V14.01,2013-06-11 23:38:00,
2013-06-11 19:39:00,68.9,66.5,29.56,West,270,4.3,4.3,92,0.08,,SKC,0.25,VWS V14.01,2013-06-11 23:39:00,
2013-06-11 19:40:00,68.9,66.5,29.56,West,270,5.8,5.8,92,0.08,,SKC,0.25,VWS V14.01,2013-06-11 23:40:00,
2013-06-11 19:42:00,68.7,66.3,29.56,West,270,5.4,5.6,92,0.08,,SKC,0.25,VWS V14.01,2013-06-11 23:42:00,
2013-06-11 19:44:00,68.5,66.1,29.53,West,270,3.8,5.6,92,0.08,,SKC,0.25,VWS V14.01,2013-06-11 23:44:00,
2013-06-11 19:46:00,68.5,66.1,29.53,WNW,292,3.8,3.8,92,0.08,,SKC,0.25,VWS V14.01,2013-06-11 23:46:00,
2013-06-11 19:48:00,68.4,65.9,29.53,West,270,3.1,4.0,92,0.08,,SKC,0.25,VWS V14.01,2013-06-11 23:48:00,
2013-06-11 19:49:00,68.4,65.9,29.53,WSW,248,3.6,3.8,92,0.08,,SKC,0.25,VWS V14.01,2013-06-11 23:49:00,
2013-06-11 19:50:00,68.4,65.9,29.53,West,270,4.0,4.3,92,0.08,,SKC,0.25,VWS V14.01,2013-06-11 23:50:00,
2013-06-11 19:52:00,68.2,65.8,29.53,West,270,4.3,4.5,92,0.08,,SKC,0.25,VWS V14.01,2013-06-11 23:52:00,
2013-06-11 19:54:00,68.0,65.6,29.53,West,270,4.3,4.3,92,0.08,,SKC,0.25,VWS V14.01,2013-06-11 23:54:00,
2013-06-11 19:56:00,68.0,65.6,29.53,West,270,4.0,6.0,92,0.08,,SKC,0.25,VWS V14.01,2013-06-11 23:56:00,
2013-06-11 19:58:00,67.8,65.7,29.56,West,270,5.6,5.6,93,0.08,,SKC,0.25,VWS V14.01,2013-06-11 23:58:00,
2013-06-11 19:59:00,67.8,65.7,29.56,West,270,3.8,5.8,93,0.08,,SKC,0.25,VWS V14.01,2013-06-11 23:59:00,
2013-06-11 20:00:00,67.8,65.7,29.56,West,270,3.4,4.0,93,0.08,,SKC,0.25,VWS V14.01,2013-06-12 00:00:00,
2013-06-11 20:02:00,67.8,65.7,29.56,West,270,4.3,5.6,93,0.08,,SKC,0.25,VWS V14.01,2013-06-12 00:02:00,
2013-06-11 20:04:00,67.6,65.6,29.56,West,270,3.8,4.7,93,0.08,,SKC,0.25,VWS V14.01,2013-06-12 00:04:00,
2013-06-11 20:06:00,67.6,65.6,29.56,West,270,2.9,4.0,93,0.08,,SKC,0.25,VWS V14.01,2013-06-12 00:06:00,
2013-06-11 20:08:00,67.6,65.6,29.56,WSW,248,3.4,3.6,93,0.08,,SKC,0.25,VWS V14.01,2013-06-12 00:08:00,
2013-06-11 20:09:00,67.6,65.6,29.56,West,270,3.8,3.8,93,0.08,,SKC,0.25,VWS V14.01,2013-06-12 00:09:00,
2013-06-11 20:10:00,67.6,65.6,29.56,WSW,248,3.1,3.8,93,0.08,,SKC,0.25,VWS V14.01,2013-06-12 00:10:00,
2013-06-11 20:12:00,67.5,65.4,29.56,WSW,248,2.5,3.6,93,0.08,,SKC,0.25,VWS V14.01,2013-06-12 00:12:00,
2013-06-11 20:14:00,67.5,65.4,29.56,West,270,4.0,4.0,93,0.08,,SKC,0.25,VWS V14.01,2013-06-12 00:14:00,
2013-06-11 20:16:00,67.5,65.4,29.56,West,270,2.7,3.8,93,0.08,,SKC,0.25,VWS V14.01,2013-06-12 00:16:00,
2013-06-11 20:18:00,67.5,65.7,29.56,WSW,248,2.7,3.4,94,0.08,,SKC,0.25,VWS V14.01,2013-06-12 00:18:00,
2013-06-11 20:19:00,67.5,65.7,29.56,WNW,292,2.7,3.4,94,0.08,,SKC,0.25,VWS V14.01,2013-06-12 00:19:00,
2013-06-11 20:20:00,67.5,65.7,29.56,West,270,3.1,3.4,94,0.08,,SKC,0.25,VWS V14.01,2013-06-12 00:20:00,
2013-06-11 20:22:00,67.5,65.7,29.56,WNW,292,2.9,4.3,94,0.08,,SKC,0.25,VWS V14.01,2013-06-12 00:22:00,
2013-06-11 20:24:00,67.5,65.7,29.56,WNW,292,2.5,2.7,94,0.08,,SKC,0.25,VWS V14.01,2013-06-12 00:24:00,
2013-06-11 20:26:00,67.5,65.7,29.56,West,270,2.5,2.9,94,0.08,,SKC,0.25,VWS V14.01,2013-06-12 00:26:00,
2013-06-11 20:28:00,67.3,65.5,29.56,West,270,2.7,3.1,94,0.04,,SKC,0.25,VWS V14.01,2013-06-12 00:28:00,
2013-06-11 20:29:00,67.3,65.5,29.56,WSW,248,2.5,3.4,94,0.04,,SKC,0.25,VWS V14.01,2013-06-12 00:29:00,
2013-06-11 20:30:00,67.3,65.5,29.56,West,270,2.0,3.4,94,0.04,,SKC,0.25,VWS V14.01,2013-06-12 00:30:00,
2013-06-11 20:32:00,67.3,65.5,29.56,WNW,292,3.4,3.4,94,0.00,,SKC,0.25,VWS V14.01,2013-06-12 00:32:00,
2013-06-11 20:34:00,67.3,65.5,29.56,West,270,2.5,2.9,94,0.00,,SKC,0.25,VWS V14.01,2013-06-12 00:34:00,
2013-06-11 20:36:00,67.3,65.5,29.56,WNW,292,2.5,3.8,94,0.00,,SKC,0.25,VWS V14.01,2013-06-12 00:36:00,
2013-06-11 20:38:00,67.3,65.5,29.56,West,270,2.9,4.3,94,0.00,,SKC,0.25,VWS V14.01,2013-06-12 00:38:00,
2013-06-11 20:39:00,67.3,65.5,29.56,West,270,3.6,3.6,94,0.00,,SKC,0.25,VWS V14.01,2013-06-12 00:39:00,
2013-06-11 20:40:00,67.3,65.5,29.56,West,270,3.1,3.8,94,0.00,,SKC,0.25,VWS V14.01,2013-06-12 00:40:00,
2013-06-11 20:42:00,67.3,65.5,29.56,West,270,3.4,4.3,94,0.00,,SKC,0.25,VWS V14.01,2013-06-12 00:42:00,
2013-06-11 20:44:00,67.3,65.5,29.53,West,270,5.6,6.3,94,0.00,,SKC,0.25,VWS V14.01,2013-06-12 00:44:00,
2013-06-11 20:46:00,67.3,65.5,29.53,West,270,3.6,4.7,94,0.00,,SKC,0.25,VWS V14.01,2013-06-12 00:46:00,
2013-06-11 20:48:00,67.3,65.5,29.53,West,270,3.1,4.3,94,0.00,,SKC,0.25,VWS V14.01,2013-06-12 00:48:00,
2013-06-11 20:49:00,67.3,65.5,29.53,WSW,248,3.6,4.9,94,0.00,,SKC,0.25,VWS V14.01,2013-06-12 00:49:00,
2013-06-11 20:50:00,67.1,65.3,29.53,WSW,248,3.1,4.9,94,0.00,,SKC,0.25,VWS V14.01,2013-06-12 00:50:00,
2013-06-11 20:52:00,67.1,65.3,29.53,West,270,4.0,4.3,94,0.00,,SKC,0.25,VWS V14.01,2013-06-12 00:52:00,
2013-06-11 20:54:00,67.1,65.3,29.53,West,270,4.7,5.6,94,0.00,,SKC,0.25,VWS V14.01,2013-06-12 00:54:00,
2013-06-11 20:56:00,67.1,65.3,29.53,West,270,4.3,4.3,94,0.00,,SKC,0.25,VWS V14.01,2013-06-12 00:56:00,
2013-06-11 20:58:00,66.9,65.1,29.56,West,270,4.0,4.9,94,0.00,,SKC,0.25,VWS V14.01,2013-06-12 00:58:00,
2013-06-11 20:59:00,66.9,65.1,29.56,West,270,4.0,4.9,94,0.00,,SKC,0.25,VWS V14.01,2013-06-12 00:59:00,
2013-06-11 21:00:00,66.9,65.1,29.56,NW,315,6.0,6.0,94,0.00,,SKC,0.25,VWS V14.01,2013-06-12 01:00:00,
2013-06-11 21:02:00,66.9,65.1,29.56,West,270,5.4,5.8,94,0.00,,SKC,0.25,VWS V14.01,2013-06-12 01:02:00,
2013-06-11 21:04:00,66.7,65.0,29.56,West,270,4.0,5.6,94,0.00,,SKC,0.25,VWS V14.01,2013-06-12 01:04:00,
2013-06-11 21:06:00,66.7,65.0,29.56,West,270,3.8,6.3,94,0.00,,SKC,0.25,VWS V14.01,2013-06-12 01:06:00,
2013-06-11 21:08:00,66.7,65.0,29.56,West,270,3.8,6.3,94,0.00,,SKC,0.25,VWS V14.01,2013-06-12 01:08:00,
2013-06-11 21:09:00,66.6,64.5,29.56,West,270,4.0,5.8,93,0.00,,SKC,0.25,VWS V14.01,2013-06-12 01:09:00,
2013-06-11 21:10:00,66.6,64.5,29.56,West,270,5.6,5.8,93,0.00,,SKC,0.25,VWS V14.01,2013-06-12 01:10:00,
2013-06-11 21:12:00,66.6,64.5,29.56,West,270,5.4,7.2,93,0.00,,SKC,0.25,VWS V14.01,2013-06-12 01:12:00,
2013-06-11 21:14:00,66.4,64.3,29.56,West,270,6.5,8.5,93,0.00,,SKC,0.25,VWS V14.01,2013-06-12 01:14:00,
2013-06-11 21:16:00,66.4,64.3,29.56,West,270,3.6,5.8,93,0.00,,SKC,0.25,VWS V14.01,2013-06-12 01:16:00,
2013-06-11 21:18:00,66.4,64.3,29.56,West,270,5.8,6.3,93,0.00,,SKC,0.25,VWS V14.01,2013-06-12 01:18:00,
2013-06-11 21:19:00,66.4,64.3,29.56,West,270,5.6,8.1,93,0.00,,SKC,0.25,VWS V14.01,2013-06-12 01:19:00,
2013-06-11 21:20:00,66.2,64.1,29.56,West,270,7.4,7.4,93,0.00,,SKC,0.25,VWS V14.01,2013-06-12 01:20:00,
2013-06-11 21:22:00,66.2,64.1,29.56,West,270,7.8,10.5,93,0.00,,SKC,0.25,VWS V14.01,2013-06-12 01:22:00,
2013-06-11 21:24:00,66.2,63.8,29.56,WNW,292,7.4,7.4,92,0.00,,SKC,0.25,VWS V14.01,2013-06-12 01:24:00,
2013-06-11 21:26:00,66.2,63.8,29.56,NW,315,7.4,7.8,92,0.00,,SKC,0.25,VWS V14.01,2013-06-12 01:26:00,
2013-06-11 21:28:00,66.0,63.9,29.59,West,270,8.7,8.7,93,0.00,,SKC,0.25,VWS V14.01,2013-06-12 01:28:00,
2013-06-11 21:29:00,66.0,63.9,29.59,West,270,7.4,7.4,93,0.00,,SKC,0.25,VWS V14.01,2013-06-12 01:29:00,
2013-06-11 21:30:00,66.0,63.9,29.59,West,270,4.9,7.6,93,0.00,,SKC,0.25,VWS V14.01,2013-06-12 01:30:00,
2013-06-11 21:32:00,65.8,63.5,29.59,West,270,7.8,7.8,92,0.00,,SKC,0.25,VWS V14.01,2013-06-12 01:32:00,
2013-06-11 21:34:00,65.8,63.5,29.59,WNW,292,4.3,8.7,92,0.00,,SKC,0.25,VWS V14.01,2013-06-12 01:34:00,
2013-06-11 21:36:00,65.8,63.5,29.59,NW,315,5.8,8.1,92,0.00,,SKC,0.25,VWS V14.01,2013-06-12 01:36:00,
2013-06-11 21:38:00,65.8,63.5,29.59,WNW,292,6.9,6.9,92,0.00,,SKC,0.25,VWS V14.01,2013-06-12 01:38:00,
2013-06-11 21:39:00,65.8,63.5,29.59,WNW,292,6.0,6.5,92,0.00,,SKC,0.25,VWS V14.01,2013-06-12 01:39:00,
2013-06-11 21:40:00,65.8,63.5,29.59,West,270,7.4,7.4,92,0.00,,SKC,0.25,VWS V14.01,2013-06-12 01:40:00,
2013-06-11 21:42:00,65.7,63.3,29.59,West,270,6.5,6.5,92,0.00,,SKC,0.25,VWS V14.01,2013-06-12 01:42:00,
2013-06-11 21:44:00,65.7,63.3,29.59,West,270,5.4,7.6,92,0.00,,SKC,0.25,VWS V14.01,2013-06-12 01:44:00,
2013-06-11 21:46:00,65.7,63.3,29.59,WNW,292,9.2,9.2,92,0.00,,SKC,0.25,VWS V14.01,2013-06-12 01:46:00,
2013-06-11 21:48:00,65.7,63.3,29.59,WNW,292,4.3,6.7,92,0.00,,SKC,0.25,VWS V14.01,2013-06-12 01:48:00,
2013-06-11 21:49:00,65.7,63.3,29.59,West,270,4.3,6.3,92,0.00,,SKC,0.25,VWS V14.01,2013-06-12 01:49:00,
2013-06-11 21:50:00,65.7,63.3,29.59,West,270,4.9,6.3,92,0.00,,SKC,0.25,VWS V14.01,2013-06-12 01:50:00,
2013-06-11 21:52:00,65.5,63.1,29.59,West,270,5.4,8.5,92,0.00,,SKC,0.25,VWS V14.01,2013-06-12 01:52:00,
2013-06-11 21:54:00,65.5,63.1,29.59,NW,315,4.9,5.8,92,0.00,,SKC,0.25,VWS V14.01,2013-06-12 01:54:00,
2013-06-11 21:56:00,65.3,62.9,29.59,West,270,5.8,6.5,92,0.00,,SKC,0.25,VWS V14.01,2013-06-12 01:56:00,
2013-06-11 21:58:00,65.3,62.9,29.59,West,270,5.8,6.0,92,0.00,,SKC,0.25,VWS V14.01,2013-06-12 01:58:00,
2013-06-11 21:59:00,65.3,63.2,29.59,West,270,4.9,7.2,93,0.00,,SKC,0.25,VWS V14.01,2013-06-12 01:59:00,
2013-06-11 22:00:00,65.3,63.2,29.59,West,270,4.0,7.2,93,0.00,,SKC,0.25,VWS V14.01,2013-06-12 02:00:00,
2013-06-11 22:02:00,65.3,62.9,29.59,West,270,4.0,5.8,92,0.00,,SKC,0.25,VWS V14.01,2013-06-12 02:02:00,
2013-06-11 22:03:00,65.3,62.9,29.59,West,270,4.3,4.3,92,0.00,,SKC,0.25,VWS V14.01,2013-06-12 02:03:00,
2013-06-11 22:04:00,65.3,62.9,29.59,West,270,4.0,4.3,92,0.00,,SKC,0.25,VWS V14.01,2013-06-12 02:04:00,
2013-06-11 22:05:00,65.3,62.9,29.59,West,270,6.3,6.3,92,0.00,,SKC,0.25,VWS V14.01,2013-06-12 02:05:00,
2013-06-11 22:06:00,65.3,62.9,29.59,NW,315,6.0,6.3,92,0.00,,SKC,0.25,VWS V14.01,2013-06-12 02:06:00,
2013-06-11 22:07:00,65.3,62.9,29.59,West,270,3.8,6.3,92,0.00,,SKC,0.25,VWS V14.01,2013-06-12 02:07:00,
2013-06-11 22:08:00,65.3,62.9,29.59,West,270,4.9,6.3,92,0.00,,SKC,0.25,VWS V14.01,2013-06-12 02:08:00,
2013-06-11 22:09:00,65.3,62.9,29.59,West,270,4.9,6.3,92,0.00,,SKC,0.25,VWS V14.01,2013-06-12 02:09:00,
2013-06-11 22:10:00,65.3,62.9,29.59,West,270,5.8,6.3,92,0.00,,SKC,0.25,VWS V14.01,2013-06-12 02:10:00,
2013-06-11 22:11:00,65.3,62.9,29.59,West,270,4.0,6.3,92,0.00,,SKC,0.25,VWS V14.01,2013-06-12 02:11:00,
2013-06-11 22:12:00,65.3,62.9,29.59,West,270,4.0,6.3,92,0.00,,SKC,0.25,VWS V14.01,2013-06-12 02:12:00,
2013-06-11 22:13:00,65.3,62.9,29.59,West,270,6.0,6.3,92,0.00,,SKC,0.25,VWS V14.01,2013-06-12 02:13:00,
2013-06-11 22:14:00,65.3,62.9,29.59,West,270,4.7,6.3,92,0.00,,SKC,0.25,VWS V14.01,2013-06-12 02:14:00,
2013-06-11 22:15:00,65.3,62.9,29.59,West,270,4.0,6.3,92,0.00,,SKC,0.25,VWS V14.01,2013-06-12 02:15:00,
2013-06-11 22:16:00,65.3,62.9,29.59,West,270,4.0,6.3,92,0.00,,SKC,0.25,VWS V14.01,2013-06-12 02:16:00,
2013-06-11 22:17:00,65.3,62.9,29.59,West,270,6.3,6.3,92,0.00,,SKC,0.25,VWS V14.01,2013-06-12 02:17:00,
2013-06-11 22:18:00,65.1,62.7,29.59,West,270,4.7,6.3,92,0.00,,SKC,0.25,VWS V14.01,2013-06-12 02:18:00,
2013-06-11 22:19:00,65.1,62.7,29.59,West,270,4.3,6.3,92,0.00,,SKC,0.25,VWS V14.01,2013-06-12 02:19:00,
2013-06-11 22:20:00,65.1,63.0,29.59,WNW,292,4.9,6.3,93,0.00,,SKC,0.25,VWS V14.01,2013-06-12 02:20:00,
2013-06-11 22:21:00,65.1,63.0,29.59,WNW,292,6.0,6.3,93,0.00,,SKC,0.25,VWS V14.01,2013-06-12 02:21:00,
2013-06-11 22:22:00,65.1,63.0,29.59,NW,315,4.9,6.3,93,0.00,,SKC,0.25,VWS V14.01,2013-06-12 02:22:00,
2013-06-11 22:23:00,65.1,63.0,29.59,West,270,3.6,6.3,93,0.00,,SKC,0.25,VWS V14.01,2013-06-12 02:23:00,
2013-06-11 22:24:00,65.1,63.0,29.59,West,270,7.8,7.8,93,0.00,,SKC,0.25,VWS V14.01,2013-06-12 02:24:00,
2013-06-11 22:25:00,64.9,62.6,29.59,WSW,248,6.0,7.8,92,0.00,,SKC,0.25,VWS V14.01,2013-06-12 02:25:00,
2013-06-11 22:26:00,64.9,62.6,29.59,West,270,4.3,7.8,92,0.00,,SKC,0.25,VWS V14.01,2013-06-12 02:26:00,
2013-06-11 22:27:00,64.9,62.6,29.59,West,270,4.0,7.8,92,0.00,,SKC,0.25,VWS V14.01,2013-06-12 02:27:00,
2013-06-11 22:28:00,64.9,62.6,29.59,West,270,4.9,7.8,92,0.00,,SKC,0.25,VWS V14.01,2013-06-12 02:28:00,
2013-06-11 22:29:00,64.8,62.4,29.59,WNW,292,5.6,7.8,92,0.00,,SKC,0.25,VWS V14.01,2013-06-12 02:29:00,
2013-06-11 22:30:00,64.8,62.4,29.59,West,270,4.5,7.8,92,0.00,,SKC,0.25,VWS V14.01,2013-06-12 02:30:00,
2013-06-11 22:31:00,64.8,62.4,29.59,WSW,248,8.5,8.5,92,0.00,,SKC,0.25,VWS V14.01,2013-06-12 02:31:00,
2013-06-11 22:32:00,64.8,62.4,29.59,West,270,4.9,8.5,92,0.00,,SKC,0.25,VWS V14.01,2013-06-12 02:32:00,
2013-06-11 22:33:00,64.8,62.4,29.59,West,270,5.6,8.5,92,0.00,,SKC,0.25,VWS V14.01,2013-06-12 02:33:00,
2013-06-11 22:34:00,64.8,62.4,29.59,West,270,4.9,8.5,92,0.00,,SKC,0.25,VWS V14.01,2013-06-12 02:34:00,
2013-06-11 22:35:00,64.8,62.4,29.59,West,270,5.6,8.5,92,0.00,,SKC,0.25,VWS V14.01,2013-06-12 02:35:00,
2013-06-11 22:36:00,64.8,62.4,29.59,WNW,292,7.6,8.5,92,0.00,,SKC,0.25,VWS V14.01,2013-06-12 02:36:00,
2013-06-11 22:37:00,64.6,62.2,29.59,West,270,5.8,8.5,92,0.00,,SKC,0.25,VWS V14.01,2013-06-12 02:37:00,
2013-06-11 22:38:00,64.6,62.2,29.59,West,270,7.4,8.5,92,0.00,,SKC,0.25,VWS V14.01,2013-06-12 02:38:00,
2013-06-11 22:39:00,64.6,62.2,29.59,West,270,5.6,8.5,92,0.00,,SKC,0.25,VWS V14.01,2013-06-12 02:39:00,
2013-06-11 22:40:00,64.8,62.4,29.59,West,270,6.9,8.5,92,0.00,,SKC,0.25,VWS V14.01,2013-06-12 02:40:00,
2013-06-11 22:41:00,64.8,62.4,29.59,West,270,4.0,8.5,92,0.00,,SKC,0.25,VWS V14.01,2013-06-12 02:41:00,
2013-06-11 22:42:00,64.8,62.4,29.59,West,270,5.6,8.5,92,0.00,,SKC,0.25,VWS V14.01,2013-06-12 02:42:00,
2013-06-11 22:43:00,64.8,62.4,29.59,West,270,6.0,8.5,92,0.00,,SKC,0.25,VWS V14.01,2013-06-12 02:43:00,
2013-06-11 22:44:00,64.8,62.4,29.59,West,270,6.9,8.5,92,0.00,,SKC,0.25,VWS V14.01,2013-06-12 02:44:00,
2013-06-11 22:45:00,64.8,62.4,29.59,WNW,292,5.6,8.5,92,0.00,,SKC,0.25,VWS V14.01,2013-06-12 02:45:00,
2013-06-11 22:46:00,64.8,62.4,29.59,WNW,292,6.3,8.5,92,0.00,,SKC,0.25,VWS V14.01,2013-06-12 02:46:00,
2013-06-11 22:47:00,64.8,62.4,29.59,West,270,6.5,8.5,92,0.00,,SKC,0.25,VWS V14.01,2013-06-12 02:47:00,
2013-06-11 22:48:00,64.8,62.4,29.59,WNW,292,7.4,8.5,92,0.00,,SKC,0.25,VWS V14.01,2013-06-12 02:48:00,
2013-06-11 22:49:00,64.8,62.4,29.59,NW,315,7.4,8.5,92,0.00,,SKC,0.25,VWS V14.01,2013-06-12 02:49:00,
2013-06-11 22:50:00,64.8,62.4,29.59,West,270,6.0,8.5,92,0.00,,SKC,0.25,VWS V14.01,2013-06-12 02:50:00,
2013-06-11 22:51:00,64.8,62.4,29.59,WNW,292,4.9,7.6,92,0.00,,SKC,0.25,VWS V14.01,2013-06-12 02:51:00,
2013-06-11 22:52:00,64.8,62.4,29.59,West,270,5.4,7.6,92,0.00,,SKC,0.25,VWS V14.01,2013-06-12 02:52:00,
2013-06-11 22:53:00,64.8,62.4,29.59,WSW,248,6.3,7.6,92,0.00,,SKC,0.25,VWS V14.01,2013-06-12 02:53:00,
2013-06-11 22:54:00,64.8,62.4,29.59,West,270,7.8,7.8,92,0.00,,SKC,0.25,VWS V14.01,2013-06-12 02:54:00,
2013-06-11 22:55:00,64.9,62.6,29.59,WNW,292,6.3,7.8,92,0.00,,SKC,0.25,VWS V14.01,2013-06-12 02:55:00,
2013-06-11 22:56:00,64.8,62.4,29.59,West,270,7.6,7.8,92,0.00,,SKC,0.25,VWS V14.01,2013-06-12 02:56:00,
2013-06-11 22:57:00,64.8,62.4,29.59,West,270,7.2,7.8,92,0.00,,SKC,0.25,VWS V14.01,2013-06-12 02:57:00,
2013-06-11 22:58:00,64.8,62.1,29.59,West,270,6.0,7.8,91,0.00,,SKC,0.25,VWS V14.01,2013-06-12 02:58:00,
2013-06-11 22:59:00,64.8,62.1,29.59,West,270,6.0,7.8,91,0.00,,SKC,0.25,VWS V14.01,2013-06-12 02:59:00,
2013-06-11 23:00:00,64.8,62.1,29.59,West,270,6.5,7.8,91,0.00,,SKC,0.25,VWS V14.01,2013-06-12 03:00:00,
2013-06-11 23:01:00,64.8,62.1,29.59,West,270,7.2,7.8,91,0.00,,SKC,0.25,VWS V14.01,2013-06-12 03:01:00,
2013-06-11 23:02:00,64.8,62.1,29.59,WSW,248,7.4,7.8,91,0.00,,SKC,0.25,VWS V14.01,2013-06-12 03:02:00,
2013-06-11 23:03:00,64.8,62.1,29.59,West,270,7.8,7.8,91,0.00,,SKC,0.25,VWS V14.01,2013-06-12 03:03:00,
2013-06-11 23:04:00,64.8,62.1,29.59,WNW,292,6.5,7.8,91,0.00,,SKC,0.25,VWS V14.01,2013-06-12 03:04:00,
2013-06-11 23:05:00,64.8,62.1,29.59,West,270,4.9,7.8,91,0.00,,SKC,0.25,VWS V14.01,2013-06-12 03:05:00,
2013-06-11 23:06:00,64.8,62.1,29.59,WNW,292,3.8,7.8,91,0.00,,SKC,0.25,VWS V14.01,2013-06-12 03:06:00,
2013-06-11 23:07:00,64.8,62.1,29.59,West,270,8.7,8.7,91,0.00,,SKC,0.25,VWS V14.01,2013-06-12 03:07:00,
2013-06-11 23:08:00,64.8,62.1,29.59,West,270,5.8,8.7,91,0.00,,SKC,0.25,VWS V14.01,2013-06-12 03:08:00,
2013-06-11 23:09:00,64.8,62.1,29.59,WNW,292,8.5,8.7,91,0.00,,SKC,0.25,VWS V14.01,2013-06-12 03:09:00,
2013-06-11 23:10:00,64.8,62.1,29.59,West,270,6.3,8.7,91,0.00,,SKC,0.25,VWS V14.01,2013-06-12 03:10:00,
2013-06-11 23:11:00,64.8,61.8,29.59,WSW,248,5.8,8.7,90,0.00,,SKC,0.25,VWS V14.01,2013-06-12 03:11:00,
2013-06-11 23:12:00,64.8,62.1,29.59,West,270,15.2,15.2,91,0.00,,SKC,0.25,VWS V14.01,2013-06-12 03:12:00,
2013-06-11 23:13:00,64.8,61.8,29.59,West,270,6.5,15.2,90,0.00,,SKC,0.25,VWS V14.01,2013-06-12 03:13:00,
2013-06-11 23:14:00,64.6,61.6,29.59,West,270,8.7,15.2,90,0.00,,SKC,0.25,VWS V14.01,2013-06-12 03:14:00,
2013-06-11 23:15:00,64.8,61.8,29.59,West,270,7.6,15.2,90,0.00,,SKC,0.25,VWS V14.01,2013-06-12 03:15:00,
2013-06-11 23:16:00,64.8,61.8,29.59,WSW,248,7.4,15.2,90,0.00,,SKC,0.25,VWS V14.01,2013-06-12 03:16:00,
2013-06-11 23:17:00,64.8,61.8,29.59,WNW,292,7.4,15.2,90,0.00,,SKC,0.25,VWS V14.01,2013-06-12 03:17:00,
2013-06-11 23:18:00,64.8,61.8,29.59,West,270,5.4,15.2,90,0.00,,SKC,0.25,VWS V14.01,2013-06-12 03:18:00,
2013-06-11 23:19:00,64.8,61.8,29.59,West,270,7.6,15.2,90,0.00,,SKC,0.25,VWS V14.01,2013-06-12 03:19:00,
2013-06-11 23:20:00,64.6,61.6,29.59,West,270,5.4,15.2,90,0.00,,SKC,0.25,VWS V14.01,2013-06-12 03:20:00,
2013-06-11 23:21:00,64.8,61.5,29.59,West,270,7.6,15.2,89,0.00,,SKC,0.25,VWS V14.01,2013-06-12 03:21:00,
2013-06-11 23:22:00,64.8,61.5,29.59,NW,315,8.7,15.2,89,0.00,,SKC,0.25,VWS V14.01,2013-06-12 03:22:00,
2013-06-11 23:23:00,64.8,61.1,29.59,West,270,9.8,15.2,88,0.00,,SKC,0.25,VWS V14.01,2013-06-12 03:23:00,
2013-06-11 23:24:00,64.8,61.1,29.59,West,270,11.4,15.2,88,0.00,,SKC,0.25,VWS V14.01,2013-06-12 03:24:00,
2013-06-11 23:25:00,64.8,61.5,29.59,West,270,8.7,15.2,89,0.00,,SKC,0.25,VWS V14.01,2013-06-12 03:25:00,
2013-06-11 23:26:00,64.8,61.5,29.59,NW,315,6.7,15.2,89,0.00,,SKC,0.25,VWS V14.01,2013-06-12 03:26:00,
2013-06-11 23:27:00,64.8,61.1,29.59,West,270,8.1,15.2,88,0.00,,SKC,0.25,VWS V14.01,2013-06-12 03:27:00,
2013-06-11 23:28:00,64.8,61.5,29.59,NW,315,6.5,15.2,89,0.00,,SKC,0.25,VWS V14.01,2013-06-12 03:28:00,
2013-06-11 23:29:00,64.8,61.5,29.59,West,270,6.5,15.2,89,0.00,,SKC,0.25,VWS V14.01,2013-06-12 03:29:00,
2013-06-11 23:30:00,64.8,61.5,29.59,West,270,8.7,15.2,89,0.00,,SKC,0.25,VWS V14.01,2013-06-12 03:30:00,
2013-06-11 23:31:00,64.8,61.1,29.59,West,270,4.9,15.2,88,0.00,,SKC,0.25,VWS V14.01,2013-06-12 03:31:00,
2013-06-11 23:32:00,64.8,61.1,29.59,WNW,292,8.1,11.4,88,0.00,,SKC,0.25,VWS V14.01,2013-06-12 03:32:00,
2013-06-11 23:33:00,64.8,61.1,29.59,West,270,6.0,11.4,88,0.00,,SKC,0.25,VWS V14.01,2013-06-12 03:33:00,
2013-06-11 23:34:00,64.8,61.1,29.59,West,270,3.8,11.4,88,0.00,,SKC,0.25,VWS V14.01,2013-06-12 03:34:00,
2013-06-11 23:35:00,64.8,61.1,29.59,West,270,5.6,11.4,88,0.00,,SKC,0.25,VWS V14.01,2013-06-12 03:35:00,
2013-06-11 23:36:00,64.8,61.5,29.59,West,270,6.3,11.4,89,0.00,,SKC,0.25,VWS V14.01,2013-06-12 03:36:00,
2013-06-11 23:37:00,64.8,61.1,29.59,West,270,6.3,11.4,88,0.00,,SKC,0.25,VWS V14.01,2013-06-12 03:37:00,
2013-06-11 23:38:00,64.8,61.1,29.59,West,270,4.5,11.4,88,0.00,,SKC,0.25,VWS V14.01,2013-06-12 03:38:00,
2013-06-11 23:39:00,64.8,61.1,29.59,SW,225,5.4,11.4,88,0.00,,SKC,0.25,VWS V14.01,2013-06-12 03:39:00,
2013-06-11 23:40:00,64.8,61.1,29.59,West,270,7.4,11.4,88,0.00,,SKC,0.25,VWS V14.01,2013-06-12 03:40:00,
2013-06-11 23:41:00,64.6,61.0,29.59,West,270,8.5,11.4,88,0.00,,SKC,0.25,VWS V14.01,2013-06-12 03:41:00,
2013-06-11 23:42:00,64.6,61.0,29.59,West,270,6.5,11.4,88,0.00,,SKC,0.25,VWS V14.01,2013-06-12 03:42:00,
2013-06-11 23:43:00,64.6,61.0,29.59,West,270,7.6,11.4,88,0.00,,SKC,0.25,VWS V14.01,2013-06-12 03:43:00,
2013-06-11 23:44:00,64.6,61.0,29.59,West,270,8.5,8.7,88,0.00,,SKC,0.25,VWS V14.01,2013-06-12 03:44:00,
2013-06-11 23:45:00,64.6,61.0,29.59,North,0,9.0,9.0,88,0.00,,SKC,0.25,VWS V14.01,2013-06-12 03:45:00,
2013-06-11 23:46:00,64.6,61.0,29.59,WNW,292,5.8,9.0,88,0.00,,SKC,0.25,VWS V14.01,2013-06-12 03:46:00,
2013-06-11 23:47:00,64.6,61.0,29.59,West,270,6.0,9.0,88,0.00,,SKC,0.25,VWS V14.01,2013-06-12 03:47:00,
2013-06-11 23:48:00,64.6,61.3,29.59,West,270,8.7,9.0,89,0.00,,SKC,0.25,VWS V14.01,2013-06-12 03:48:00,
2013-06-11 23:49:00,64.4,60.8,29.59,West,270,7.8,9.0,88,0.00,,SKC,0.25,VWS V14.01,2013-06-12 03:49:00,
2013-06-11 23:50:00,64.4,60.8,29.59,West,270,8.7,9.0,88,0.00,,SKC,0.25,VWS V14.01,2013-06-12 03:50:00,
2013-06-11 23:51:00,64.4,60.8,29.59,West,270,8.7,9.0,88,0.00,,SKC,0.25,VWS V14.01,2013-06-12 03:51:00,
2013-06-11 23:52:00,64.4,60.8,29.59,West,270,8.7,9.0,88,0.00,,SKC,0.25,VWS V14.01,2013-06-12 03:52:00,
2013-06-11 23:53:00,64.4,60.8,29.59,West,270,5.4,9.0,88,0.00,,SKC,0.25,VWS V14.01,2013-06-12 03:53:00,
2013-06-11 23:54:00,64.4,60.8,29.59,NW,315,8.5,9.0,88,0.00,,SKC,0.25,VWS V14.01,2013-06-12 03:54:00,
2013-06-11 23:55:00,64.4,60.8,29.59,West,270,8.1,9.0,88,0.00,,SKC,0.25,VWS V14.01,2013-06-12 03:55:00,
2013-06-11 23:56:00,64.4,60.8,29.59,West,270,6.3,9.0,88,0.00,,SKC,0.25,VWS V14.01,2013-06-12 03:56:00,
2013-06-11 23:57:00,64.4,60.8,29.59,West,270,7.4,9.0,88,0.00,,SKC,0.25,VWS V14.01,2013-06-12 03:57:00,
2013-06-11 23:58:00,64.4,60.8,29.59,NW,315,7.4,9.0,88,0.00,,SKC,0.25,VWS V14.01,2013-06-12 03:58:00,
2013-06-11 23:59:00,64.4,60.8,29.59,West,270,7.4,9.0,88,0.00,,SKC,0.25,VWS V14.01,2013-06-12 03:59:00,